Site Listing - Page 47

WF ID Website Alexa Rank PageRank Backlinks Last Updated
92002 dg165.net 92002 0 0 2009-11-08 01:20:08
92003 akamaitech.net 92003 0 0 2009-11-08 01:20:08
92004 golfballs.com 92004 0 0 2009-11-08 01:20:08
92005 onlinetextmessage.com 92005 0 0 2009-11-08 01:20:08
92006 bbapp.net 108038 5 871 2010-03-06 14:21:43
92007 strip.tv 92007 0 0 2009-11-08 01:20:08
92008 prosperityrising.com 92008 0 0 2009-11-08 01:20:08
92009 railway.co.th 92009 0 0 2009-11-08 01:20:08
92010 curethis.org 92010 0 0 2009-11-08 01:20:08
92011 bungalows.nl 92011 0 0 2009-11-08 01:20:08
92012 monfestival.fr 92012 0 0 2009-11-08 01:20:08
92013 flash-link.net 92013 0 0 2009-11-08 01:20:08
92014 thebeatlesrockband.com 92014 0 0 2009-11-08 01:20:08
92015 linkexchangesystems.com 92015 0 0 2009-11-08 01:20:08
92016 mmafrenzy.com 92016 0 0 2009-11-08 01:20:08
92017 wrestlingzone.ru 92017 0 0 2009-11-08 01:20:08
92018 elsak.org 92018 0 0 2009-11-08 01:20:08
92019 jsu.edu 92019 0 0 2009-11-08 01:20:08
92020 pak.net 92020 0 0 2009-11-08 01:20:08
92021 caricature.es 92021 0 0 2009-11-08 01:20:08
92022 hentaimovieparadise.com 92022 0 0 2009-11-08 01:20:08
92023 xsad.ru 92023 0 0 2009-11-08 01:20:08
92024 macwindows.com 92024 0 0 2009-11-08 01:20:08
92025 bb-team.org 92025 0 0 2009-11-08 01:20:08
92026 sitedomain.de 92026 0 0 2009-11-08 01:20:08
92027 wxg.cc 96558 4 14,000 2010-04-02 13:06:50
92028 infopresse.com 92028 0 0 2009-11-08 01:20:08
92029 ggc.com.tr 92029 0 0 2009-11-08 01:20:08
92030 steveharvey.com 92030 0 0 2009-11-08 01:20:08
92031 aolfeedback-clarabridge.com 92031 0 0 2009-11-08 01:20:08
92032 eoem.cc 92032 0 0 2009-11-08 01:20:08
92033 supplementwarehouse.com 92033 0 0 2009-11-08 01:20:08
92034 1stsitefree.com 105408 4 145 2010-02-22 22:43:28
92035 oceanbreezegames.com 92035 0 0 2009-11-08 01:20:08
92036 admissionnews.com 92036 0 0 2009-11-08 01:20:08
92037 p-mart.net 92037 0 0 2009-11-08 01:20:08
92038 15151.jp 130039 1 156 2010-02-09 20:45:48
92039 bustyjayde.com 92039 0 0 2009-11-08 01:20:08
92040 shiply.com 92040 0 0 2009-11-08 01:20:08
92041 revou.com 92041 0 0 2009-11-08 01:20:08
92042 journal-officiel.gouv.fr 92042 0 0 2009-11-08 01:20:08
92043 toya.net.pl 92043 0 0 2009-11-08 01:20:08
92044 galenfrysinger.com 92044 0 0 2009-11-08 01:20:08
92045 999xq.com 92045 0 0 2009-11-08 01:20:08
92046 owncustom.com 92046 0 0 2009-11-08 01:20:08
92047 welho.com 92047 0 0 2009-11-08 01:20:08
92048 tnalist.com 92048 0 0 2009-11-08 01:20:08
92049 opopular.com.br 92049 0 0 2009-11-08 01:20:08
92050 tceb.edu.tw 92050 0 0 2009-11-08 01:20:08
92051 aldaba.com 97232 1 637 2010-02-13 10:21:14
92052 stripteasecomic.com 92858 4 185 2010-04-11 05:22:26
92053 efeel.to 173793 3 810 2010-03-22 21:53:58
92054 mammeonline.net 92054 0 0 2009-11-08 01:20:08
92055 wistia.com 92055 0 0 2009-11-08 01:20:08
92056 elearningserver.com 92056 0 0 2009-11-08 01:20:08
92057 atlasobscura.com 65826 6 4,020 2010-02-13 11:26:39
92058 anime-kun.net 92058 0 0 2009-11-08 01:20:08
92059 kping.com 92059 0 0 2009-11-08 01:20:08
92060 henan.gov.cn 92060 0 0 2009-11-08 01:20:08
92061 noscope.com 92061 0 0 2009-11-08 01:20:08
92062 tripleio.com 92062 0 0 2009-11-08 01:20:08
92063 thelink.co.uk 92063 0 0 2009-11-08 01:20:08
92064 inblogs.com.br 92064 0 0 2009-11-08 01:20:08
92065 clipdealer.de 92065 0 0 2009-11-08 01:20:08
92066 musicclub.it 92066 0 0 2009-11-08 01:20:08
92067 juventus.ru 92067 0 0 2009-11-08 01:20:08
92068 mrworldpremiere.net 92068 0 0 2009-11-08 01:20:08
92069 superresume.com 92069 0 0 2009-11-08 01:20:08
92070 beliceweb.it 92070 0 0 2009-11-08 01:20:08
92071 yuyue51.com 92071 0 0 2009-11-08 01:20:08
92072 thehungrymouse.com 92072 0 0 2009-11-08 01:20:08
92073 fun-with-pictures.com 92073 0 0 2009-11-08 01:20:08
92074 indigosong.net 92074 0 0 2009-11-08 01:20:08
92075 4x4brasil.com.br 92075 0 0 2009-11-08 01:20:08
92076 arena.ru 83316 4 70,200 2010-02-12 20:15:59
92077 csv.de 92077 0 0 2009-11-08 01:20:08
92078 parsian-design.com 92078 0 0 2009-11-08 01:20:08
92079 goldcum.com 92079 0 0 2009-11-08 01:20:08
92080 mhi.co.jp 92080 0 0 2009-11-08 01:20:08
92081 chinahighway.com 92081 0 0 2009-11-08 01:20:08
92082 wthashtag.com 92082 0 0 2009-11-08 01:20:08
92083 bluegolf.com 92083 0 0 2009-11-08 01:20:08
92084 51render.com 92084 0 0 2009-11-08 01:20:08
92085 invast.jp 92085 0 0 2009-11-08 01:20:08
92086 casualgameplay.com 92086 0 0 2009-11-08 01:20:08
92087 laprogressive.com 92087 0 0 2009-11-08 01:20:08
92088 fashionweekdaily.com 92088 0 0 2009-11-08 01:20:08
92089 kronostm.com 92089 0 0 2009-11-08 01:20:08
92090 indopakmasti.com 92090 0 0 2009-11-08 01:20:08
92091 doc-foufoune.com 92091 0 0 2009-11-08 01:20:08
92092 enjoyz.com 92092 0 0 2009-11-08 01:20:08
92093 fat-loss-expert.com 92093 0 0 2009-11-08 01:20:08
92094 nb5.cn 92094 0 0 2009-11-08 01:20:08
92095 lahora.com.ec 92095 0 0 2009-11-08 01:20:08
92096 swisstools.net 92096 0 0 2009-11-08 01:20:08
92097 mabila.com 92097 0 0 2009-11-08 01:20:08
92098 jam-hot.com 92098 0 0 2009-11-08 01:20:08
92099 cuckoldmenow.com 92099 0 0 2009-11-08 01:20:08
92100 gramponante.com 92100 0 0 2009-11-08 01:20:08
92101 claranet.de 92101 0 0 2009-11-08 01:20:08
92102 nsopw.gov 92102 0 0 2009-11-08 01:20:08
92103 fotki.lv 92103 0 0 2009-11-08 01:20:08
92104 theinternetmarketinginnercircle.com 92104 0 0 2009-11-08 01:20:08
92105 multisearchweb.com 92105 0 0 2009-11-08 01:20:08
92106 absolufun.com 92106 0 0 2009-11-08 01:20:08
92107 whgm168.com 92107 0 0 2009-11-08 01:20:08
92108 seo-template.de 92108 0 0 2009-11-08 01:20:08
92109 omiki.com 100962 0 10,700 2010-05-16 02:59:13
92110 results.edu.ye 92110 0 0 2009-11-08 01:20:08
92111 gnmagazine.org 92111 0 0 2009-11-08 01:20:08
92112 unaplauso.com 92112 0 0 2009-11-08 01:20:08
92113 bizhiol.com 92113 0 0 2009-11-08 01:20:08
92114 zhiweinet.com 92114 0 0 2009-11-08 01:20:08
92115 derekallard.com 92115 0 0 2009-11-08 01:20:08
92116 mugrn.net 92116 0 0 2009-11-08 01:20:08
92117 realtor.com.au 92117 0 0 2009-11-08 01:20:08
92118 sfr-fresh.com 92118 0 0 2009-11-08 01:20:08
92119 bisnis-online-internet.blogspot.com 135890 2 189 2010-04-12 16:01:36
92120 ostroda.info 92120 0 0 2009-11-08 01:20:08
92121 ordersatellitenow.com 92121 0 0 2009-11-08 01:20:08
92122 myfirehost.com 92122 0 0 2009-11-08 01:20:08
92123 autoinsurancetips.com 92123 0 0 2009-11-08 01:20:08
92124 airkiosk.com 92124 0 0 2009-11-08 01:20:08
92125 webpagefx.com 92125 0 0 2009-11-08 01:20:08
92126 cdnhost.cn 92126 0 0 2009-11-08 01:20:08
92127 starstyleinc.com 92127 0 0 2009-11-08 01:20:08
92128 haydoo.com 92128 0 0 2009-11-08 01:20:08
92129 holy-cuteness.blogspot.com 92129 0 0 2009-11-08 01:20:08
92130 utimf.com 74692 6 1,110 2010-03-09 21:37:31
92131 afromontreal.com 92131 0 0 2009-11-08 01:20:08
92132 graduateshotline.com 92132 0 0 2009-11-08 01:20:08
92133 programbbs.com 92133 0 0 2009-11-08 01:20:08
92134 devside.net 92134 0 0 2009-11-08 01:20:08
92135 ebuygold.com 92135 0 0 2009-11-08 01:20:08
92136 1ka.me 1877251 4 154 2010-04-10 08:24:36
92137 kepco.co.jp 92137 0 0 2009-11-08 01:20:08
92138 tsw.it 92138 0 0 2009-11-08 01:20:08
92139 orkin.com 92139 0 0 2009-11-08 01:20:08
92140 imageboss.net 92140 0 0 2009-11-08 01:20:08
92141 scandalthumbs.com 92141 0 0 2009-11-08 01:20:08
92142 tableausoftware.com 92142 0 0 2009-11-08 01:20:08
92143 relojes-especiales.com 92143 0 0 2009-11-08 01:20:08
92144 dosirak.com 92144 0 0 2009-11-08 01:20:08
92145 mercuriusgids.nl 92145 0 0 2009-11-08 01:20:08
92146 webbuyersguide.com 92146 0 0 2009-11-08 01:20:08
92147 51jiuhuo.com 92147 0 0 2009-11-08 01:20:08
92148 proibitissimi.com 92148 0 0 2009-11-08 01:20:08
92149 inafind.com 92149 0 0 2009-11-08 01:20:08
92150 firehost.com 92150 0 0 2009-11-08 01:20:08
92151 iki.lt 115967 6 6,200 2010-04-01 09:45:53
92152 fakporn.com 92152 0 0 2009-11-08 01:20:08
92153 vrijeme.hr 73061 6 152 2010-03-14 18:26:56
92154 profimailer.de 92154 0 0 2009-11-08 01:20:08
92155 hekko.pl 92155 0 0 2009-11-08 01:20:08
92156 tanzeelnet.com 92156 0 0 2009-11-08 01:20:08
92157 phonegap.com 92157 0 0 2009-11-08 01:20:08
92158 portel.de 92158 0 0 2009-11-08 01:20:08
92159 gardaland.it 92159 0 0 2009-11-08 01:20:08
92160 ibigbang.wordpress.com 69244 4 1,740 2010-04-11 04:50:24
92161 varadinum.com 92161 0 0 2009-11-08 01:20:08
92162 sharegraphic.com 122212 2 4,950 2010-09-20 16:47:15
92163 redaxxion.com 92163 0 0 2009-11-08 01:20:08
92164 consortiuminfo.org 92164 0 0 2009-11-08 01:20:08
92165 pocketberry.com 92165 0 0 2009-11-08 01:20:08
92166 thehorse.com 92166 0 0 2009-11-08 01:20:08
92167 nonmidire.it 92167 0 0 2009-11-08 01:20:08
92168 ultimate-rihanna.com 92168 0 0 2009-11-08 01:20:08
92169 pearlnpearl.com 92169 0 0 2009-11-08 01:20:08
92170 cubeme.com 92170 0 0 2009-11-08 01:20:08
92171 orange-empresas.es 92171 0 0 2009-11-08 01:20:08
92172 info.ro 92172 0 0 2009-11-08 01:20:08
92173 vtx.ch 92173 0 0 2009-11-08 01:20:08
92174 onrec.com 92174 0 0 2009-11-08 01:20:08
92175 vipreactor.cn 92175 0 0 2009-11-08 01:20:08
92176 denniksport.sk 92176 0 0 2009-11-08 01:20:08
92177 ruprom.net 92177 0 0 2009-11-08 01:20:08
92178 4u2ges.com 92178 0 0 2009-11-08 01:20:08
92179 familyguydirect.com 92179 0 0 2009-11-08 01:20:08
92180 amubux.com 92180 0 0 2009-11-08 01:20:08
92181 affiliate-cash.de 92181 0 0 2009-11-08 01:20:08
92182 woodtools.ru 92182 0 0 2009-11-08 01:20:08
92183 mitierratvco.com 92183 0 0 2009-11-08 01:20:08
92184 2001.com.ve 103567 6 1 2010-03-14 22:39:04
92185 effcu.org 132704 4 243 2010-03-03 11:25:57
92186 danas.rs 92186 0 0 2009-11-08 01:20:08
92187 si-pl.com 92187 0 0 2009-11-08 01:20:08
92188 newsdate.by 92188 0 0 2009-11-08 01:20:08
92189 fieca.com 115398 2 227 2010-03-11 05:56:46
92190 techcrunchies.com 92190 0 0 2009-11-08 01:20:08
92191 nsw88.com 92191 0 0 2009-11-08 01:20:08
92192 funnel.co.za 92192 0 0 2009-11-08 01:20:08
92193 coolsearchinfo.com 92193 0 0 2009-11-08 01:20:08
92194 ifauna.cz 92194 0 0 2009-11-08 01:20:08
92195 intelproplaw.com 104921 7 9,930 2010-04-13 01:14:36
92196 shnu.edu.cn 92196 0 0 2009-11-08 01:20:08
92197 koc2.com 92197 0 0 2009-11-08 01:20:08
92198 mfile.co.kr 92198 0 0 2009-11-08 01:20:08
92199 allofjo.net 92199 0 0 2009-11-08 01:20:08
92200 116.11.253.181 471688 0 0 2010-04-10 22:59:53
92201 apfelblog.ch 92201 0 0 2009-11-08 01:20:08
92202 haohj.com 92202 0 0 2009-11-08 01:20:08
92203 mclub.com.ua 92203 0 0 2009-11-08 01:20:08
92204 lakeshorelearning.com 92204 0 0 2009-11-08 01:20:08
92205 perublogs.com 92205 0 0 2009-11-08 01:20:08
92206 berlytharangal.com 92206 0 0 2009-11-08 01:20:08
92207 xswhw.com 92207 0 0 2009-11-08 01:20:08
92208 pcwaishe.cn 92208 0 0 2009-11-08 01:20:08
92209 italiafilm.net 92209 0 0 2009-11-08 01:20:08
92210 frotel.com 92210 0 0 2009-11-08 01:20:08
92211 somucheasier.co.uk 92211 0 0 2009-11-08 01:20:08
92212 netweather.tv 92212 0 0 2009-11-08 01:20:08
92213 themaddenlab.com 92213 0 0 2009-11-08 01:20:08
92214 litox.ru 120864 4 6,890 2010-02-26 03:31:38
92215 bestrealincome.com 92215 0 0 2009-11-08 01:20:08
92216 3d-screensaver-download.com 92216 0 0 2009-11-08 01:20:08
92217 smash-jpn.com 92217 0 0 2009-11-08 01:20:08
92218 motorcyclecruiser.com 92218 0 0 2009-11-08 01:20:08
92219 les-creatifs.com 92219 0 0 2009-11-08 01:20:08
92220 ucn.com.br 92220 0 0 2009-11-08 01:20:08
92221 mitsui-chintai.co.jp 92221 0 0 2009-11-08 01:20:08
92222 deutsche-bank.es 92222 0 0 2009-11-08 01:20:08
92223 yundns.com 92223 0 0 2009-11-08 01:20:08
92224 plrspectacular.com 92224 0 0 2009-11-08 01:20:08
92225 press.ne.jp 92225 0 0 2009-11-08 01:20:08
92226 dajaz1.com 92226 0 0 2009-11-08 01:20:08
92227 spot.ph 75646 6 6,890 2010-03-18 00:30:32
92228 instantoffices.com 92228 0 0 2009-11-08 01:20:08
92229 music2music2.org 92229 0 0 2009-11-08 01:20:08
92230 findtoyou.com 92230 0 0 2009-11-08 01:20:08
92231 fftodayforums.com 92231 0 0 2009-11-08 01:20:08
92232 grusskarten-e-cards.de 88092 0 1,080 2010-05-12 13:50:31
92233 lightstalking.com 92233 0 0 2009-11-08 01:20:08
92234 88by88.com 92234 0 0 2009-11-08 01:20:08
92235 fchong.net 92235 0 0 2009-11-08 01:20:08
92236 pornusers.com 92236 0 0 2009-11-08 01:20:08
92237 digitalcamcenter.com 92237 0 0 2009-11-08 01:20:08
92238 internetstatistik.dk 92238 0 0 2009-11-08 01:20:08
92239 kickassmovies.com 92239 0 0 2009-11-08 01:20:08
92240 tier.tv 92240 0 0 2009-11-08 01:20:08
92241 muaban.com.vn 92241 0 0 2009-11-08 01:20:08
92242 eros.es 92242 0 0 2009-11-08 01:20:08
92243 3x2.com 92243 0 0 2009-11-08 01:20:08
92244 lefux.com 92244 0 0 2009-11-08 01:20:08
92245 javascriptbank.com 92245 0 0 2009-11-08 01:20:08
92246 tipatop.ru 92246 0 0 2009-11-08 01:20:08
92247 sassyqarla.com 92247 0 0 2009-11-08 01:20:08
92248 bogenimaging.us 92248 0 0 2009-11-08 01:20:08
92249 indirgame.com 92249 0 0 2009-11-08 01:20:08
92250 pdirectorio.com 92250 0 0 2009-11-08 01:20:08
92251 magento.de 92251 0 0 2009-11-08 01:20:08
92252 greenwebfans.com 92252 0 0 2009-11-08 01:20:08
92253 slingshot.co.nz 92253 0 0 2009-11-08 01:20:08
92254 covergalaxy.com 92254 0 0 2009-11-08 01:20:08
92255 sexyuu.com 304048 1 164 2010-03-15 13:12:12
92256 gwyks.com 92256 0 0 2009-11-08 01:20:08
92257 stlouisrams.com 92257 0 0 2009-11-08 01:20:08
92258 narutoproject.ru 92258 0 0 2009-11-08 01:20:08
92259 homepage-buttons.de 92259 0 0 2009-11-08 01:20:08
92260 opinionsquare.com 92260 0 0 2009-11-08 01:20:08
92261 matt.wordpress.com 92261 0 0 2009-11-08 01:20:08
92262 mauerfall09.de 92262 0 0 2009-11-08 01:20:08
92263 dealdoktor.de 92263 0 0 2009-11-08 01:20:08
92264 wagamachi-guide.com 92264 0 0 2009-11-08 01:20:08
92265 imagecows.com 92265 0 0 2009-11-08 01:20:08
92266 clipbaz.com 92266 0 0 2009-11-08 01:20:08
92267 goudan.com 92267 0 0 2009-11-08 01:20:08
92268 sexsitejunkie.com 92268 0 0 2009-11-08 01:20:08
92269 truckinweb.com 92269 0 0 2009-11-08 01:20:08
92270 deblinley.com 92270 0 0 2009-11-08 01:20:08
92271 stargazette.com 92271 0 0 2009-11-08 01:20:08
92272 foreclosurelistings.com 92272 0 0 2009-11-08 01:20:08
92273 eqonline.fi 92273 0 0 2009-11-08 01:20:08
92274 cancionesdelayer.com 92274 0 0 2009-11-08 01:20:08
92275 annews.ru 92275 0 0 2009-11-08 01:20:08
92276 vantaa.fi 117873 7 516,000 2010-03-03 10:04:16
92277 emulemas.com 92277 0 0 2009-11-08 01:20:08
92278 yatakclub.com 92278 0 0 2009-11-08 01:20:08
92279 restrealitaet.de 92279 0 0 2009-11-08 01:20:08
92280 websitedesjahres.de 92280 0 0 2009-11-08 01:20:08
92281 premiumorange.com 92281 0 0 2009-11-08 01:20:08
92282 go4b.net.pk 92282 0 0 2009-11-08 01:20:08
92283 naukriforwomen.com 92283 0 0 2009-11-08 01:20:08
92284 espm.br 0 7 594,000 2010-03-20 12:28:27
92285 ecpulse.com 92285 0 0 2009-11-08 01:20:08
92286 fullsexfilmleri.com 92286 0 0 2009-11-08 01:20:08
92287 giggle.com 92287 0 0 2009-11-08 01:20:08
92288 meduniwien.ac.at 98872 8 20,900 2010-04-13 02:06:35
92289 coolest-kid-birthday-parties.com 92289 0 0 2009-11-08 01:20:08
92290 shahroodut.ac.ir 92290 0 0 2009-11-08 01:20:08
92291 speech-topics-help.com 92291 0 0 2009-11-08 01:20:08
92292 ppc-welt.info 92292 0 0 2009-11-08 01:20:08
92293 everdrive.com 92293 0 0 2009-11-08 01:20:08
92294 cwroom.com 92294 0 0 2009-11-08 01:20:08
92295 zingerbug.com 92295 0 0 2009-11-08 01:20:08
92296 romscentral.com 92296 0 0 2009-11-08 01:20:08
92297 travessa.com.br 92297 0 0 2009-11-08 01:20:08
92298 ldb.lt 92298 0 0 2009-11-08 01:20:08
92299 anadolujet.com 92299 0 0 2009-11-08 01:20:08
92300 nextgenplr.com 92300 0 0 2009-11-08 01:20:08
92301 porno1.su 92301 0 0 2009-11-08 01:20:08
92302 mjnet.co.jp 92302 0 0 2009-11-08 01:20:08
92303 designmom.com 92303 0 0 2009-11-08 01:20:08
92304 ideafinder.com 92304 0 0 2009-11-08 01:20:08
92305 lmy3.cn 92305 0 0 2009-11-08 01:20:08
92306 tvgente.com 92306 0 0 2009-11-08 01:20:08
92307 globalfashionreport.com 92307 0 0 2009-11-08 01:20:08
92308 vimua.com 92308 0 0 2009-11-08 01:20:08
92309 hintsandthings.co.uk 92309 0 0 2009-11-08 01:20:08
92310 lessentiel.lu 92310 0 0 2009-11-08 01:20:08
92311 swu.edu.cn 92311 0 0 2009-11-08 01:20:08
92312 hanrss.com 92312 0 0 2009-11-08 01:20:08
92313 plaync.com 92313 0 0 2009-11-08 01:20:08
92314 gothaer.de 92314 0 0 2009-11-08 01:20:08
92315 fhtw-berlin.de 92315 0 0 2009-11-08 01:20:08
92316 dakine.com 92316 0 0 2009-11-08 01:20:08
92317 quickhit.com 92317 0 0 2009-11-08 01:20:08
92318 snipz.de 71498 2 824 2010-02-26 06:58:39
92319 erotikum.de 92319 0 0 2009-11-08 01:20:08
92320 radionawa.com 92320 0 0 2009-11-08 01:20:08
92321 phpbb3.es 92321 0 0 2009-11-08 01:20:08
92322 php.co.jp 91485 6 14,600 2010-03-04 07:54:52
92323 pagerank10.co.uk 92323 0 0 2009-11-08 01:20:08
92324 silicon.fr 92324 0 0 2009-11-08 01:20:08
92325 keshetpreschool.org 92325 0 0 2009-11-08 01:20:08
92326 gameseek.co.uk 92326 0 0 2009-11-08 01:20:08
92327 123bemyhost.com 113266 3 1,650 2010-02-04 11:13:28
92328 firstmaturetube.com 92328 0 0 2009-11-08 01:20:08
92329 aving.net 61029 5 42,000 2010-02-13 17:58:15
92330 fattyblowjobs.com 92330 0 0 2009-11-08 01:20:08
92331 eliteacompanhantes.com.br 92331 0 0 2009-11-08 01:20:08
92332 nowsms.com 82455 5 3,710 2010-03-15 07:59:48
92333 hmr.jp/user/ItemDetailPC 92333 0 0 2009-11-08 01:20:08
92334 whas11.com 92334 0 0 2009-11-08 01:20:08
92335 hs-rm.de 92335 0 0 2009-11-08 01:20:08
92336 modelayu.com 262242 0 17,600 2010-06-30 22:29:28
92337 today-reviews.com 92337 0 0 2009-11-08 01:20:08
92338 deltafaucet.com 92338 0 0 2009-11-08 01:20:08
92339 aatravel.co.za 112941 6 9,110 2010-04-10 18:52:56
92340 newmoonthesoundtrack.com 92340 0 0 2009-11-08 01:20:08
92341 galileosolutions.net 92341 0 0 2009-11-08 01:20:08
92342 payoffers.in 160395 2 114 2010-02-20 17:17:46
92343 elitefreelancing.com 92343 0 0 2009-11-08 01:20:08
92344 prochatrooms.com 92344 0 0 2009-11-08 01:20:08
92345 pedlib.ru 92345 0 0 2009-11-08 01:20:08
92346 fcla.edu 112691 6 76,700 2010-03-13 01:20:18
92347 powerlinkgenerator.com 92347 0 0 2009-11-08 01:20:08
92348 thagodzparking.com 92348 0 0 2009-11-08 01:20:08
92349 gamelet.com 92349 0 0 2009-11-08 01:20:08
92350 hoganstand.com 92350 0 0 2009-11-08 01:20:08
92351 super.ae 37335 4 7,910 2010-03-23 21:53:21
92352 abnamro.com 92352 0 0 2009-11-08 01:20:08
92353 mininterno.net 92353 0 0 2009-11-08 01:20:08
92354 myff.ru 92354 0 0 2009-11-08 01:20:08
92355 bmwclub.ua 92355 0 0 2009-11-08 01:20:08
92356 maxtrening.ru 92356 0 0 2009-11-08 01:20:08
92357 6t1t.com 92357 0 0 2009-11-08 01:20:08
92358 naruto-kun.com 162742 4 5,360 2010-04-12 23:02:04
92359 cadforum.cz 92359 0 0 2009-11-08 01:20:08
92360 nenaidesh.ru 92360 0 0 2009-11-08 01:20:08
92361 discountanabolics.com 92361 0 0 2009-11-08 01:20:08
92362 more4sure.in 92362 0 0 2009-11-08 01:20:08
92363 receitasemenus.net 92363 0 0 2009-11-08 01:20:08
92364 karjalainen.fi 92364 0 0 2009-11-08 01:20:08
92365 okboobs.com 92365 0 0 2009-11-08 01:20:08
92366 edcomp.com 92366 0 0 2009-11-08 01:20:08
92367 ariwriter.com 92367 0 0 2009-11-08 01:20:08
92368 wi-tribe.pk 92368 0 0 2009-11-08 01:20:08
92369 refresh.ro 92369 0 0 2009-11-08 01:20:08
92370 intheswim.com 92370 0 0 2009-11-08 01:20:08
92371 port01.com 92371 0 0 2009-11-08 01:20:08
92372 mileyonline.fr 92372 0 0 2009-11-08 01:20:08
92373 nsgals.com 92373 0 0 2009-11-08 01:20:08
92374 llywot.com 92374 0 0 2009-11-08 01:20:08
92375 consoles.net 92375 0 0 2009-11-08 01:20:08
92376 picpostsexy.net 92376 0 0 2009-11-08 01:20:08
92377 photo4u.it 92377 0 0 2009-11-08 01:20:08
92378 ynavi.jp 92378 0 0 2009-11-08 01:20:08
92379 marijuanapassion.com 92379 0 0 2009-11-08 01:20:08
92380 etour.co.jp 92380 0 0 2009-11-08 01:20:08
92381 ucn.cl 92381 0 0 2009-11-08 01:20:08
92382 buycheapsoftware.com 92382 0 0 2009-11-08 01:20:08
92383 chert.ru 102915 4 190 2010-02-14 18:32:58
92384 e-bebek.com 92384 0 0 2009-11-08 01:20:08
92385 samplefan.com 92385 0 0 2009-11-08 01:20:08
92386 imangascans.com 92386 0 0 2009-11-08 01:20:08
92387 hotgifts.ru 92387 0 0 2009-11-08 01:20:08
92388 partner-versicherung.de 92388 0 0 2009-11-08 01:20:08
92389 blueunplugged.com 78767 4 5,230 2010-02-14 06:11:36
92390 contact-sfr.com 92390 0 0 2009-11-08 01:20:08
92391 nostale.it 92391 0 0 2009-11-08 01:20:08
92392 elysee.fr 92392 0 0 2009-11-08 01:20:08
92393 negocius.com 92393 0 0 2009-11-08 01:20:08
92394 artnoris.com 92394 0 0 2009-11-08 01:20:08
92395 6679.com 92395 0 0 2009-11-08 01:20:08
92396 first-pay.com 92396 0 0 2009-11-08 01:20:08
92397 rgp-journal.ru 92397 0 0 2009-11-08 01:20:08
92398 zh5000.com 92398 0 0 2009-11-08 01:20:08
92399 idxbroker.com 92399 0 0 2009-11-08 01:20:08
92400 ovulation-calculator.com 92400 0 0 2009-11-08 01:20:08
92401 publichouse.ms 92401 0 0 2009-11-08 01:20:08
92402 c-dating.nl 142236 0 6 2010-05-09 14:42:49
92403 blackhatseo.com 92403 0 0 2009-11-08 01:20:08
92404 hedgerwow.com 92404 0 0 2009-11-08 01:20:08
92405 tcs.ch 97830 6 8,460 2010-02-08 11:47:19
92406 googlle.com 92406 0 0 2009-11-08 01:20:08
92407 tugamania.com 92407 0 0 2009-11-08 01:20:08
92408 loveoo.com 92408 0 0 2009-11-08 01:20:08
92409 is-ingenio.us 92409 0 0 2009-11-08 01:20:08
92410 enuygun.com 92410 0 0 2009-11-08 01:20:08
92411 zcyao.com 92411 0 0 2009-11-08 01:20:08
92412 allgrannysex.com 92412 0 0 2009-11-08 01:20:08
92413 actufinance.fr 92413 0 0 2009-11-08 01:20:08
92414 consol.at 92414 0 0 2009-11-08 01:20:08
92415 yes.com.ru 92415 0 0 2009-11-08 01:20:08
92416 ninfasex.com.br 92416 0 0 2009-11-08 01:20:08
92417 muslim.or.id 92417 0 0 2009-11-08 01:20:08
92418 pieroricca.org 92418 0 0 2009-11-08 01:20:08
92419 whitestrips.com 92419 0 0 2009-11-08 01:20:08
92420 koreantopnews.com 92420 0 0 2009-11-08 01:20:08
92421 lancashiretelegraph.co.uk 92421 0 0 2009-11-08 01:20:08
92422 bollywood-songs.org 92422 0 0 2009-11-08 01:20:08
92423 yemenindex.net 92423 0 0 2009-11-08 01:20:08
92424 merumo.ne.jp 92424 0 0 2009-11-08 01:20:08
92425 tutorial-lab.com 92425 0 0 2009-11-08 01:20:08
92426 churchforum.org 92426 0 0 2009-11-08 01:20:08
92427 measuredup.com 92427 0 0 2009-11-08 01:20:08
92428 topendsports.com 92428 0 0 2009-11-08 01:20:08
92429 corepoweryoga.com 92429 0 0 2009-11-08 01:20:08
92430 stworld.jp 92430 0 0 2009-11-08 01:20:08
92431 mountainhardwear.com 92431 0 0 2009-11-08 01:20:08
92432 planetaclix.pt 92432 0 0 2009-11-08 01:20:08
92433 astel.be 128018 4 13,500 2010-02-23 02:45:07
92434 emysearch.com 92434 0 0 2009-11-08 01:20:08
92435 20dollarbailout.biz 269762 3 101 2010-02-16 08:36:55
92436 wintesla2003.com 92436 0 0 2009-11-08 01:20:08
92437 periodictable.com 92437 0 0 2009-11-08 01:20:08
92438 idodogtricks.com 92438 0 0 2009-11-08 01:20:08
92439 remodelingcenter.com 92439 0 0 2009-11-08 01:20:08
92440 viralnugget.com 92440 0 0 2009-11-08 01:20:08
92441 tvacres.com 92441 0 0 2009-11-08 01:20:08
92442 2mcq.com 311196 0 326 2010-03-09 16:27:41
92443 aaasmeetings.org 92443 0 0 2009-11-08 01:20:08
92444 fiets.nl 101896 5 8,880 2010-02-09 12:59:36
92445 staemme.ch 92445 0 0 2009-11-08 01:20:08
92446 mbtheme.com 97705 4 3,270 2010-04-01 19:11:21
92447 mtm5omt.info 92447 0 0 2009-11-08 01:20:08
92448 manga.hu 92448 0 0 2009-11-08 01:20:08
92449 techfacts.net 92449 0 0 2009-11-08 01:20:08
92450 currentjobs.in 92450 0 0 2009-11-08 01:20:08
92451 nyandaful.jp 92451 0 0 2009-11-08 01:20:08
92452 s-u-j-u.net 92452 0 0 2009-11-08 01:20:08
92453 1337-crew.to 221719 2 29 2010-02-17 05:56:59
92454 jrsoftware.org 92454 0 0 2009-11-08 01:20:08
92455 magportal.com 92455 0 0 2009-11-08 01:20:08
92456 tbzmed.ac.ir 74384 0 6,390 2010-08-04 16:39:44
92457 ps09.info 80113 0 107 2010-03-05 02:57:52
92458 avsmile.com 217131 2 4 2010-04-01 10:45:09
92459 utrechtart.com 88000 6 146,000 2010-04-10 17:46:37
92460 awardspace.info 92460 0 0 2009-11-08 01:20:08
92461 diplomatie.be 92461 0 0 2009-11-08 01:20:08
92462 artquotes.net 92462 0 0 2009-11-08 01:20:08
92463 behindindia.com 92463 0 0 2009-11-08 01:20:08
92464 cskabasket.com 92464 0 0 2009-11-08 01:20:08
92465 x-rolik.biz 92465 0 0 2009-11-08 01:20:08
92466 buscouniversidad.com.ar 71268 4 23,600 2010-04-12 22:49:08
92467 webdirections.org 92467 0 0 2009-11-08 01:20:08
92468 salzburg.at 92468 0 0 2009-11-08 01:20:08
92469 blr.com 92469 0 0 2009-11-08 01:20:08
92470 foodservicedirect.com 92470 0 0 2009-11-08 01:20:08
92471 colissimo.fr 92471 0 0 2009-11-08 01:20:08
92472 epica.nl 92472 0 0 2009-11-08 01:20:08
92473 addurl.se 92473 0 0 2009-11-08 01:20:08
92474 goldmap.blogspot.com 92474 0 0 2009-11-08 01:20:08
92475 amizone.net 92475 0 0 2009-11-08 01:20:08
92476 natureetdecouvertes.com 92476 0 0 2009-11-08 01:20:08
92477 lambda-tek.com 92477 0 0 2009-11-08 01:20:08
92478 yuppy.ro 92478 0 0 2009-11-08 01:20:08
92479 novicelove.com 92479 0 0 2009-11-08 01:20:08
92480 trailsframework.org 92480 0 0 2009-11-08 01:20:08
92481 godele.com 92481 0 0 2009-11-08 01:20:08
92482 hcsc.net 92482 0 0 2009-11-08 01:20:08
92483 football.by 92483 0 0 2009-11-08 01:20:08
92484 naughtybookwormpage.com 92484 0 0 2009-11-08 01:20:08
92485 cellfire.com 92485 0 0 2009-11-08 01:20:08
92486 basquetcatala.cat 92486 0 0 2009-11-08 01:20:08
92487 secretcashloophole.com 92487 0 0 2009-11-08 01:20:08
92488 lopsta.com 92488 0 0 2009-11-08 01:20:08
92489 sidroth.org 77756 0 1,050 2010-08-01 23:46:18
92490 xinge001.com 92490 0 0 2009-11-08 01:20:08
92491 925e.com 92491 0 0 2009-11-08 01:20:08
92492 nicusa.com 92492 0 0 2009-11-08 01:20:08
92493 quicken.com 92493 0 0 2009-11-08 01:20:08
92494 utilecopii.ro 92494 0 0 2009-11-08 01:20:08
92495 nextbabes.com 92495 0 0 2009-11-08 01:20:08
92496 multimediaxis.de 92496 0 0 2009-11-08 01:20:08
92497 streakr.com 92497 0 0 2009-11-08 01:20:08
92498 seabreezecomputers.com 92498 0 0 2009-11-08 01:20:08
92499 humanfactors.com 92499 0 0 2009-11-08 01:20:08
92500 goyeah.com 92500 0 0 2009-11-08 01:20:08
92501 xrumer-palladium.blogspot.com 92501 0 0 2009-11-08 01:20:08
92502 metodebaru.com 92502 0 0 2009-11-08 01:20:08
92503 bestofhomemade.com 92503 0 0 2009-11-08 01:20:08
92504 khanakhazana.com 92504 0 0 2009-11-08 01:20:08
92505 domaintyper.com 92505 0 0 2009-11-08 01:20:08
92506 kfhonline.com 92506 0 0 2009-11-08 01:20:08
92507 netjobsguide.com 92507 0 0 2009-11-08 01:20:08
92508 isyndica.com 92508 0 0 2009-11-08 01:20:08
92509 spicyamateurs.net 92509 0 0 2009-11-08 01:20:08
92510 utalca.cl 134505 6 27,700 2010-03-15 09:50:05
92511 austar.com.au 92511 0 0 2009-11-08 01:20:08
92512 breaknews.com 92512 0 0 2009-11-08 01:20:08
92513 savetocom.com 92513 0 0 2009-11-08 01:20:08
92514 vcdc.gr 92514 0 0 2009-11-08 01:20:08
92515 gayandguy.com 92515 0 0 2009-11-08 01:20:08
92516 perolasdosexo.com 92516 0 0 2009-11-08 01:20:08
92517 aquabird.com.vn 92517 0 0 2009-11-08 01:20:08
92518 onlyrealty.net 92518 0 0 2009-11-08 01:20:08
92519 entertainmentnewslive.com 92519 0 0 2009-11-08 01:20:08
92520 crestbook.com 92520 0 0 2009-11-08 01:20:08
92521 trade-it.co.uk 92521 0 0 2009-11-08 01:20:08
92522 defense-arab.com 92522 0 0 2009-11-08 01:20:08
92523 pandalist.com 92523 0 0 2009-11-08 01:20:08
92524 newcondosonline.com 92524 0 0 2009-11-08 01:20:08
92525 pwinsiderelite.com 133928 4 3 2010-04-11 05:08:55
92526 paisdelocos.com 92526 0 0 2009-11-08 01:20:08
92527 adultxxxgamer.com 92527 0 0 2009-11-08 01:20:08
92528 encirca.biz 92528 0 0 2009-11-08 01:20:08
92529 dallascowboyscheerleaders.com 92529 0 0 2009-11-08 01:20:08
92530 volchat.ru 92530 0 0 2009-11-08 01:20:08
92531 e-katalog.sk 92531 0 0 2009-11-08 01:20:08
92532 piski-jopki.com 92532 0 0 2009-11-08 01:20:08
92533 alphahentai.com 92533 0 0 2009-11-08 01:20:08
92534 moregaytwinks.com 92534 0 0 2009-11-08 01:20:08
92535 bmwfans.info 92535 0 0 2009-11-08 01:20:08
92536 magmahost.com 92536 0 0 2009-11-08 01:20:08
92537 uzhgorod.name 92537 0 0 2009-11-08 01:20:08
92538 bestmediainfo.com 77709 2 460 2010-04-11 19:06:23
92539 wheresbest.co.uk 92539 0 0 2009-11-08 01:20:08
92540 coderetard.com 92540 0 0 2009-11-08 01:20:08
92541 uniquephones.com 92541 0 0 2009-11-08 01:20:08
92542 p2psin.it 92542 0 0 2009-11-08 01:20:08
92543 sweetmoney.com 92543 0 0 2009-11-08 01:20:08
92544 bulknutrition.com 92544 0 0 2009-11-08 01:20:08
92545 minlib.net 92545 0 0 2009-11-08 01:20:08
92546 sueblimely.com 92546 0 0 2009-11-08 01:20:08
92547 bostars.com 92547 0 0 2009-11-08 01:20:08
92548 twinspiresclub.com 92548 0 0 2009-11-08 01:20:08
92549 atkpussies.com 92549 0 0 2009-11-08 01:20:08
92550 thewatchhut.co.uk 92550 0 0 2009-11-08 01:20:08
92551 fpfrance.com 92551 0 0 2009-11-08 01:20:08
92552 indoakatsuki.us 92552 0 0 2009-11-08 01:20:08
92553 petite-soeur.dyndns.org 92553 0 0 2009-11-08 01:20:08
92554 table4five.net 92554 0 0 2009-11-08 01:20:08
92555 nabuur.com 153704 6 1,490 2010-03-12 03:50:27
92556 catonmat.net 92556 0 0 2009-11-08 01:20:08
92557 hipp.de 88912 6 799 2010-03-22 21:31:20
92558 mygeek.com 92558 0 0 2009-11-08 01:20:08
92559 symbian60.mobi 92559 0 0 2009-11-08 01:20:08
92560 directorywind.com 92560 0 0 2009-11-08 01:20:08
92561 eload24.com 92561 0 0 2009-11-08 01:20:08
92562 nexpart.com 92562 0 0 2009-11-08 01:20:08
92563 jitawang.com 92563 0 0 2009-11-08 01:20:08
92564 disneysociety.com 92564 0 0 2009-11-08 01:20:08
92565 tr.ru 63551 4 16,300 2010-02-27 23:57:29
92566 bplani.org 92566 0 0 2009-11-08 01:20:08
92567 tsfl.com 92567 0 0 2009-11-08 01:20:08
92568 adsame.com 92568 0 0 2009-11-08 01:20:08
92569 financialsamurai.com 92569 0 0 2009-11-08 01:20:08
92570 stationcasinos.com 92570 0 0 2009-11-08 01:20:08
92571 johnstonpress.co.uk 92571 0 0 2009-11-08 01:20:08
92572 gaffa.dk 92572 0 0 2009-11-08 01:20:08
92573 52nv.com 81351 2 24,900 2010-02-05 06:00:19
92574 sesameworkshop.org 92574 0 0 2009-11-08 01:20:08
92575 mohe.gov.my 92575 0 0 2009-11-08 01:20:08
92576 isg.si 92576 0 0 2009-11-08 01:20:08
92577 trulyhuge.com 92577 0 0 2009-11-08 01:20:08
92578 vwgolfclub.it 92578 0 0 2009-11-08 01:20:08
92579 kerodownload.com 92579 0 0 2009-11-08 01:20:08
92580 viamontenapoleone.org 92580 0 0 2009-11-08 01:20:08
92581 grandstream.com 92581 0 0 2009-11-08 01:20:08
92582 keepcash.com 222775 4 1,810 2010-04-12 00:34:41
92583 31ice.co.jp 92583 0 0 2009-11-08 01:20:08
92584 turkyurdu.com 92584 0 0 2009-11-08 01:20:08
92585 sparkasse-duisburg.de 92585 0 0 2009-11-08 01:20:08
92586 expresionmx.com 80037 2 1,710 2010-03-03 01:05:18
92587 nnuaire.com 84108 5 7,030 2010-03-03 01:54:25
92588 floridaflourish.com 110988 4 99 2010-03-02 23:47:13
92589 prov.ru 92589 0 0 2009-11-08 01:20:08
92590 pizzaexpress.co.uk 92590 0 0 2009-11-08 01:20:08
92591 graphmobile.com 92591 0 0 2009-11-08 01:20:08
92592 unfpa.org 92592 0 0 2009-11-08 01:20:08
92593 cities2night.com 112968 4 18,300 2010-02-06 05:00:57
92594 search4careercolleges.com 92594 0 0 2009-11-08 01:20:08
92595 fznews.com.cn 92595 0 0 2009-11-08 01:20:08
92596 bayern-online.de 96820 5 14,800 2010-02-05 07:32:22
92597 bingoguy.com 51917 3 224 2010-02-05 11:32:47
92598 mapelli.info 92598 0 0 2009-11-08 01:20:08
92599 101-sex-positions.com 152268 3 954 2010-03-02 23:59:38
92600 imperiolatino.net 110515 0 44,400 2010-03-02 23:49:53
92601 pedagogica.edu.co 92601 0 0 2009-11-08 01:20:08
92602 ogame.hu 92602 0 0 2009-11-08 01:20:08
92603 bossus.com 93238 5 480 2010-03-03 01:50:58
92604 news-herald.com 98315 6 15,600 2010-03-03 01:10:34
92605 broadbandbuyer.co.uk 92605 0 0 2009-11-08 01:20:08
92606 articlescream.com 87586 2 388 2010-02-05 08:09:56
92607 verificador.net 186018 4 4 2010-03-16 09:04:10
92608 upvery.com 92608 0 0 2009-11-08 01:20:08
92609 tcl.tk 92609 0 0 2009-11-08 01:20:08
92610 cgispy.com 104565 6 455 2010-02-06 12:34:09
92611 franksreelreviews.com 70634 4 753 2010-03-02 23:34:38
92612 speedycpm.net 92612 0 0 2009-11-08 01:20:08
92613 juniorhilltoppers.com 92613 0 0 2009-11-08 01:20:08
92614 ureader.com 118823 2 16,200 2010-03-16 09:03:55
92615 hillspet.com 92615 0 0 2009-11-08 01:20:08
92616 careerindia.com 177249 6 3,360 2010-02-05 07:11:27
92617 omeda.com 92617 0 0 2009-11-08 01:20:08
92618 mileyimages.net 92618 0 0 2009-11-08 01:20:08
92619 gobiernoenlinea.gov.co 92619 0 0 2009-11-08 01:20:08
92620 supersport.co.za 92620 0 0 2009-11-08 01:20:08
92621 sari360.ning.com 92621 0 0 2009-11-08 01:20:08
92622 yourfairdirectory.com 92622 0 0 2009-11-08 01:20:08
92623 wisdom-soft.com 103289 4 226 2010-04-11 03:52:05
92624 antlabs.com 92624 0 0 2009-11-08 01:20:08
92625 planetahr.ru 92625 0 0 2009-11-08 01:20:08
92626 erio.ws 92626 0 0 2009-11-08 01:20:08
92627 ctm-madrid.es 92627 0 0 2009-11-08 01:20:08
92628 carrieretijger.nl 92628 0 0 2009-11-08 01:20:08
92629 keptelenseg.hu 92629 0 0 2009-11-08 01:20:08
92630 pembegeceler.net 92630 0 0 2009-11-08 01:20:08
92631 goodquotes.com 92631 0 0 2009-11-08 01:20:08
92632 mcsx.net 92632 0 0 2009-11-08 01:20:08
92633 drdo.in 92633 0 0 2009-11-08 01:20:08
92634 bodaclick.com.mx 69680 4 3,030 2010-04-11 09:15:33
92635 vaisala.com 92635 0 0 2009-11-08 01:20:08
92636 majorleaguehits.com 92636 0 0 2009-11-08 01:20:08
92637 buscamp3.com.br 96850 4 11,800 2010-04-11 02:46:41
92638 tommybahama.com 92638 0 0 2009-11-08 01:20:08
92639 sciagnij.pl 92639 0 0 2009-11-08 01:20:08
92640 explode.jp 92640 0 0 2009-11-08 01:20:08
92641 passion-sfa.co.jp 92641 0 0 2009-11-08 01:20:08
92642 woodlandsonline.com 92642 0 0 2009-11-08 01:20:08
92643 qksrv.net 92643 0 0 2009-11-08 01:20:08
92644 imcpl.org 106239 6 10,400 2010-03-03 09:19:39
92645 maplesoft.com 92645 0 0 2009-11-08 01:20:08
92646 moondir.info 92646 0 0 2009-11-08 01:20:08
92647 bestinterracialmovies.com 92647 0 0 2009-11-08 01:20:08
92648 bocahiseng.blogspot.com 92648 0 0 2009-11-08 01:20:08
92649 army-technology.com 78087 6 9,700 2010-02-13 11:02:19
92650 peopleofwm.com 92650 0 0 2009-11-08 01:20:08
92651 permissionresearch.com 92651 0 0 2009-11-08 01:20:08
92652 httpwatch.com 92652 0 0 2009-11-08 01:20:08
92653 mhd-hdhieu.com 92653 0 0 2009-11-08 01:20:08
92654 yuyan.com 92654 0 0 2009-11-08 01:20:08
92655 tcc.edu 92655 0 0 2009-11-08 01:20:08
92656 pfrf.ru 92656 0 0 2009-11-08 01:20:08
92657 slimdevices.com 92657 0 0 2009-11-08 01:20:08
92658 isellpr.com 92658 0 0 2009-11-08 01:20:08
92659 littlequiz.com 92659 0 0 2009-11-08 01:20:08
92660 akg.com 92660 0 0 2009-11-08 01:20:08
92661 uni-corvinus.hu 92661 0 0 2009-11-08 01:20:08
92662 forumeye.it 92662 0 0 2009-11-08 01:20:08
92663 occasionsdulion.com 92663 0 0 2009-11-08 01:20:08
92664 nps.nl 92664 0 0 2009-11-08 01:20:08
92665 horapa.com 92665 0 0 2009-11-08 01:20:08
92666 royallepage.ca 92666 0 0 2009-11-08 01:20:08
92667 teenhomegalleries.com 92667 0 0 2009-11-08 01:20:08
92668 6h.com.cn 92668 0 0 2009-11-08 01:20:08
92669 gaydargirls.com 92669 0 0 2009-11-08 01:20:08
92670 audi.ru 92670 0 0 2009-11-08 01:20:08
92671 ndichina.com.cn 92671 0 0 2009-11-08 01:20:08
92672 lighthouserecords.jp 136405 3 1,160 2010-02-28 12:27:56
92673 ooolooo.com 92673 0 0 2009-11-08 01:20:08
92674 roomsforafrica.com 92674 0 0 2009-11-08 01:20:08
92675 rtlhirek.hu 92675 0 0 2009-11-08 01:20:08
92676 sars.co.za 92676 0 0 2009-11-08 01:20:08
92677 stereomood.com 92677 0 0 2009-11-08 01:20:08
92678 couponcactus.com 92678 0 0 2009-11-08 01:20:08
92679 yap.ir 92679 0 0 2009-11-08 01:20:08
92680 unblockmyspace.com 92680 0 0 2009-11-08 01:20:08
92681 paypal-virtualagent.com 92681 0 0 2009-11-08 01:20:08
92682 bucetasamadoras.com 92682 0 0 2009-11-08 01:20:08
92683 kiss-grace.com 92683 0 0 2009-11-08 01:20:08
92684 swing.be 92684 0 0 2009-11-08 01:20:08
92685 freizeitfreunde.de 92685 0 0 2009-11-08 01:20:08
92686 findu.org 1238656 0 75 2010-03-03 10:02:49
92687 ffmaniacs.com 92687 0 0 2009-11-08 01:20:08
92688 visifire.com 92688 0 0 2009-11-08 01:20:08
92689 nextarticles.com 92689 0 0 2009-11-08 01:20:08
92690 h-da.de 92690 0 0 2009-11-08 01:20:08
92691 ls-d.de 92691 0 0 2009-11-08 01:20:08
92692 topseratus.com 92692 0 0 2009-11-08 01:20:08
92693 site-sift.com 92693 0 0 2009-11-08 01:20:08
92694 oaktreeracing.com 1417010 5 231 2010-04-12 23:47:33
92695 intuitive.com 92695 0 0 2009-11-08 01:20:08
92696 arielrebel.com 92696 0 0 2009-11-08 01:20:08
92697 file.ge 88281 4 91,100 2010-02-08 09:34:53
92698 ariawijaya.com 97932 3 868 2010-04-10 18:28:10
92699 infernalrestraints.com 92699 0 0 2009-11-08 01:20:08
92700 marinersoftware.com 92700 0 0 2009-11-08 01:20:08
92701 bartonpublishing.com 92701 0 0 2009-11-08 01:20:08
92702 verdienstflatrate.de 92702 0 0 2009-11-08 01:20:08
92703 elitesuite.com 92703 0 0 2009-11-08 01:20:08
92704 kolmate.in 92704 0 0 2009-11-08 01:20:08
92705 chistesbromasytonteras.cl 92705 0 0 2009-11-08 01:20:08
92706 swiftmailer.org 92706 0 0 2009-11-08 01:20:08
92707 208.43.27.50/~mike 92707 0 0 2009-11-08 01:20:08
92708 infomipyme.com 92708 0 0 2009-11-08 01:20:08
92709 rapha.cc 92709 0 0 2009-11-08 01:20:08
92710 fenglin.asia 92710 0 0 2009-11-08 01:20:08
92711 myextremebargain.com 92711 0 0 2009-11-08 01:20:08
92712 talkleft.com 92712 0 0 2009-11-08 01:20:08
92713 elvis.com 92713 0 0 2009-11-08 01:20:08
92714 mixsex.info 92714 0 0 2009-11-08 01:20:08
92715 socialmediamagic.com 92715 0 0 2009-11-08 01:20:08
92716 udk.com 92716 0 0 2009-11-08 01:20:08
92717 2nakedteens.com 92717 0 0 2009-11-08 01:20:08
92718 cheappoolproducts.com 92718 0 0 2009-11-08 01:20:08
92719 elitemadzone.org 92719 0 0 2009-11-08 01:20:08
92720 banhomework.org 92720 0 0 2009-11-08 01:20:08
92721 saintsfc.co.uk 92721 0 0 2009-11-08 01:20:08
92722 portaldetonando.com.br 92722 0 0 2009-11-08 01:20:08
92723 dna.fi 92723 0 0 2009-11-08 01:20:08
92724 al-samer.net 92724 0 0 2009-11-08 01:20:08
92725 karafun.com 92725 0 0 2009-11-08 01:20:08
92726 hhbing.com 92726 0 0 2009-11-08 01:20:08
92727 digi.com.br 92727 0 0 2009-11-08 01:20:08
92728 bondageorgasms.com 92728 0 0 2009-11-08 01:20:08
92729 nb.rs 150654 8 209,000 2010-03-29 16:33:30
92730 intervaluesj.com 92730 0 0 2009-11-08 01:20:08
92731 gc678.com 92731 0 0 2009-11-08 01:20:08
92732 wwwsecurityscan04.com 92732 0 0 2009-11-08 01:20:08
92733 youtube.com/user/kevjumba 92733 0 0 2009-11-08 01:20:08
92734 directphoneshop.co.uk 92734 0 0 2009-11-08 01:20:08
92735 our.com 0 4 4,740 2010-03-17 00:17:50
92736 hairytaco.com 92736 0 0 2009-11-08 01:20:08
92737 pakom.com 92737 0 0 2009-11-08 01:20:08
92738 barrywise.com 92738 0 0 2009-11-08 01:20:08
92739 urdukahani.info 92739 0 0 2009-11-08 01:20:08
92740 aaamidatlantic.com 92740 0 0 2009-11-08 01:20:08
92741 vook.com 92741 0 0 2009-11-08 01:20:08
92742 goodlogo.com 92742 0 0 2009-11-08 01:20:08
92743 doctoralia.fr 92743 0 0 2009-11-08 01:20:08
92744 pingstate.nu 92744 0 0 2009-11-08 01:20:08
92745 emulanium.com 92745 0 0 2009-11-08 01:20:08
92746 dndirectory.net 92746 0 0 2009-11-08 01:20:08
92747 questional.com 92747 0 0 2009-11-08 01:20:08
92748 sobe3.com 92748 0 0 2009-11-08 01:20:08
92749 meilleurduweb.com 92749 0 0 2009-11-08 01:20:08
92750 tdx.com.cn 92750 0 0 2009-11-08 01:20:08
92751 24au.ru 88872 5 65,500 2010-03-31 04:26:05
92752 aids.gov.br 92752 0 0 2009-11-08 01:20:08
92753 fumuzaixian.com 92753 0 0 2009-11-08 01:20:08
92754 bestcoverletters.com 92754 0 0 2009-11-08 01:20:08
92755 kongdisk.com 92755 0 0 2009-11-08 01:20:08
92756 thedailyreviewer.com 92756 0 0 2009-11-08 01:20:08
92757 988j.com 92757 0 0 2009-11-08 01:20:08
92758 glock.com 92758 0 0 2009-11-08 01:20:08
92759 imediabiz.com 132289 4 399 2010-02-14 13:34:45
92760 caoyici.com 92760 0 0 2009-11-08 01:20:08
92761 counter-strike.net 92761 0 0 2009-11-08 01:20:08
92762 gartendatenbank.de 108798 4 3,970 2010-03-06 22:53:27
92763 stuffer31.com 92763 0 0 2009-11-08 01:20:08
92764 ipost.com 144372 5 190 2010-03-03 16:12:24
92765 webchambers.net 92765 0 0 2009-11-08 01:20:08
92766 nokia-ct.net 92766 0 0 2009-11-08 01:20:08
92767 organon.cz 92767 0 0 2009-11-08 01:20:08
92768 fjcns.com 92768 0 0 2009-11-08 01:20:08
92769 techup.it 92769 0 0 2009-11-08 01:20:08
92770 fusionace.com 92770 0 0 2009-11-08 01:20:08
92771 vilniustransport.lt 92216 2 179 2010-03-18 11:32:44
92772 relaxiha.com 92772 0 0 2009-11-08 01:20:08
92773 nationalcareerfairs.com 92773 0 0 2009-11-08 01:20:08
92774 ersys.info 92774 0 0 2009-11-08 01:20:08
92775 palestineonly.net 92775 0 0 2009-11-08 01:20:08
92776 buenosaliens.com 92776 0 0 2009-11-08 01:20:08
92777 tchibo.ch 92777 0 0 2009-11-08 01:20:08
92778 mochileiros.com 92778 0 0 2009-11-08 01:20:08
92779 classifiedflyerads.com 92779 0 0 2009-11-08 01:20:08
92780 aw-bc.com 111297 0 2,150 2010-04-12 14:30:15
92781 inspirationalquotes4u.com 92781 0 0 2009-11-08 01:20:08
92782 ephpbb.com 92782 0 0 2009-11-08 01:20:08
92783 aneventapart.com 92783 0 0 2009-11-08 01:20:08
92784 yaxy.ru 109085 2 349 2010-02-08 06:55:15
92785 whoi.edu 92785 0 0 2009-11-08 01:20:08
92786 mo-media.com 85439 5 858 2010-04-07 09:38:57
92787 cinetalkies.net 92787 0 0 2009-11-08 01:20:08
92788 scei.co.jp 92788 0 0 2009-11-08 01:20:08
92789 snackoverload.blogspot.com 92789 0 0 2009-11-08 01:20:08
92790 zoolust.net 92790 0 0 2009-11-08 01:20:08
92791 starscafe.com 89209 4 99,600 2010-02-10 01:12:57
92792 analsex-maniacs.com 92792 0 0 2009-11-08 01:20:08
92793 experato.com 92793 0 0 2009-11-08 01:20:08
92794 alfransi.com.sa 92794 0 0 2009-11-08 01:20:08
92795 audienceconf.com 92795 0 0 2009-11-08 01:20:08
92796 turktime.com 79223 6 21,900 2010-03-13 04:57:28
92797 krem.com 92797 0 0 2009-11-08 01:20:08
92798 gp32spain.com 92798 0 0 2009-11-08 01:20:08
92799 nwaonline.net 92799 0 0 2009-11-08 01:20:08
92800 indyweek.com 92800 0 0 2009-11-08 01:20:08
92801 genway.ru 92801 0 0 2009-11-08 01:20:08
92802 biosagentplus.com 92802 0 0 2009-11-08 01:20:08
92803 diademuertos.com 92803 0 0 2009-11-08 01:20:08
92804 kingsage.com.ar 92804 0 0 2009-11-08 01:20:08
92805 zhaojiaoan.com 92805 0 0 2009-11-08 01:20:08
92806 absolutemagazine.co.za 92806 0 0 2009-11-08 01:20:08
92807 torturacen.pl 92807 0 0 2009-11-08 01:20:08
92808 aimi.ru 92808 0 0 2009-11-08 01:20:08
92809 tdn.com 127508 6 28,000 2010-02-15 22:14:06
92810 wnpso.com 92810 0 0 2009-11-08 01:20:08
92811 vendadeanimes.com 92811 0 0 2009-11-08 01:20:08
92812 digitalcamerawarehouse.com.au 92812 0 0 2009-11-08 01:20:08
92813 pluginfree.com 92813 0 0 2009-11-08 01:20:08
92814 newstin.es 92814 0 0 2009-11-08 01:20:08
92815 cfisd.net 92815 0 0 2009-11-08 01:20:08
92816 bigdeels.com 92816 0 0 2009-11-08 01:20:08
92817 114ic.com 85740 5 49,500 2010-04-10 23:29:29
92818 meteoalarm.eu 92818 0 0 2009-11-08 01:20:08
92819 bruna.nl 90808 5 14,700 2010-03-18 18:29:46
92820 embaba.info 92820 0 0 2009-11-08 01:20:08
92821 surveydirect.com 92821 0 0 2009-11-08 01:20:08
92822 myeglobal.com 92822 0 0 2009-11-08 01:20:08
92823 thewebreviewer.com 92823 0 0 2009-11-08 01:20:08
92824 epag.de 130946 5 430 2010-02-08 09:18:26
92825 jkdramas.com 92825 0 0 2009-11-08 01:20:08
92826 onlinecasinoselite.com 92826 0 0 2009-11-08 01:20:08
92827 mrsa4.com 92827 0 0 2009-11-08 01:20:08
92828 im18.ru 92828 0 0 2009-11-08 01:20:08
92829 132ads.com 14276478 0 0 2010-04-11 11:59:28
92830 azfanpage.nl 92830 0 0 2009-11-08 01:20:08
92831 e-generator.ru 92831 0 0 2009-11-08 01:20:08
92832 hostelmanagement.com 92832 0 0 2009-11-08 01:20:08
92833 jm-bruneau.fr 92833 0 0 2009-11-08 01:20:08
92834 luxurylifestyle.com 92834 0 0 2009-11-08 01:20:08
92835 nten.org 92835 0 0 2009-11-08 01:20:08
92836 000domains.com 68999 5 139 2010-04-10 06:15:12
92837 dd360.com 92837 0 0 2009-11-08 01:20:08
92838 bonus-community.de 92838 0 0 2009-11-08 01:20:08
92839 tiervermittlung.de 92839 0 0 2009-11-08 01:20:08
92840 hup.hu 92840 0 0 2009-11-08 01:20:08
92841 bonuscashh.com 92841 0 0 2009-11-08 01:20:08
92842 hama1.jp 116648 3 78,400 2010-02-26 03:27:34
92843 history.org 92843 0 0 2009-11-08 01:20:08
92844 graz.at 92844 0 0 2009-11-08 01:20:08
92845 tesco-careers.com 92845 0 0 2009-11-08 01:20:09
92846 deoxy.org 92846 0 0 2009-11-08 01:20:09
92847 ixe.com.mx 92847 0 0 2009-11-08 01:20:09
92848 mutantlabs.co.uk 92848 0 0 2009-11-08 01:20:09
92849 qmonline.cn 92849 0 0 2009-11-08 01:20:09
92850 freetraffictip.com 92850 0 0 2009-11-08 01:20:09
92851 tricare.mil 92851 0 0 2009-11-08 01:20:09
92852 mba.ru 92852 0 0 2009-11-08 01:20:09
92853 mpogd.com 92853 0 0 2009-11-08 01:20:09
92854 cbaffiliateformula.com 436129 0 38 2010-04-12 15:46:53
92855 gorunger.com 92855 0 0 2009-11-08 01:20:09
92856 hoteldiscount.ru 92856 0 0 2009-11-08 01:20:09
92857 onlinemathlearning.com 92857 0 0 2009-11-08 01:20:09
92858 oopsvid.com 92858 0 0 2009-11-08 01:20:09
92859 abajate.blogspot.com 92859 0 0 2009-11-08 01:20:09
92860 fibi.co.il 92860 0 0 2009-11-08 01:20:09
92861 ibud.ua 92861 0 0 2009-11-08 01:20:09
92862 fijitimes.com 92862 0 0 2009-11-08 01:20:09
92863 einrichtungsforum.de 92863 0 0 2009-11-08 01:20:09
92864 bilgiservisim.com 92864 0 0 2009-11-08 01:20:09
92865 animationsong.com 92865 0 0 2009-11-08 01:20:09
92866 cdearth.com 92866 0 0 2009-11-08 01:20:09
92867 aumi.ru 134564 3 409 2010-02-08 06:23:35
92868 forbidden-dreams.com 92868 0 0 2009-11-08 01:20:09
92869 missionfcu.org 92869 0 0 2009-11-08 01:20:09
92870 articleseen.com 92870 0 0 2009-11-08 01:20:09
92871 humorbitch.com 92871 0 0 2009-11-08 01:20:09
92872 qpublic.net 92872 0 0 2009-11-08 01:20:09
92873 affaire18.com 97412 2 287 2010-04-12 18:04:40
92874 prav-net.ru 92874 0 0 2009-11-08 01:20:09
92875 data-out-sourcing.com 92875 0 0 2009-11-08 01:20:09
92876 mzaj.net 156404 3 144,000 2010-02-08 09:53:16
92877 bannerhost.ru 92877 0 0 2009-11-08 01:20:09
92878 duoboots.com 92878 0 0 2009-11-08 01:20:09
92879 calpop.com 92879 0 0 2009-11-08 01:20:09
92880 buyyourshere.com 92880 0 0 2009-11-08 01:20:09
92881 me.in.th 129029 6 289 2010-03-09 05:26:04
92882 trakya.edu.tr 92882 0 0 2009-11-08 01:20:09
92883 funnydips.com 92883 0 0 2009-11-08 01:20:09
92884 eyuyan.com 92884 0 0 2009-11-08 01:20:09
92885 webchin.org 92885 0 0 2009-11-08 01:20:09
92886 mjfanclub.net 92886 0 0 2009-11-08 01:20:09
92887 funtip.de 92887 0 0 2009-11-08 01:20:09
92888 wbtv.com 92888 0 0 2009-11-08 01:20:09
92889 thatslink.com 92889 0 0 2009-11-08 01:20:09
92890 giornaledellavela.com 92890 0 0 2009-11-08 01:20:09
92891 negahak.com 92891 0 0 2009-11-08 01:20:09
92892 sdodo.com 92892 0 0 2009-11-08 01:20:09
92893 garyshood.com 92893 0 0 2009-11-08 01:20:09
92894 paradays.net 92894 0 0 2009-11-08 01:20:09
92895 paydaymax.com 92895 0 0 2009-11-08 01:20:09
92896 ritemail-places.blogspot.com 92896 0 0 2009-11-08 01:20:09
92897 cdcampus.cn 92897 0 0 2009-11-08 01:20:09
92898 bikesnobnyc.blogspot.com 92898 0 0 2009-11-08 01:20:09
92899 adhocads.com 92899 0 0 2009-11-08 01:20:09
92900 bankalbilad.com.sa 92900 0 0 2009-11-08 01:20:09
92901 dma09.org 3759731 6 231 2010-03-19 12:13:07
92902 ibtimes.co.kr 92902 0 0 2009-11-08 01:20:09
92903 myfilm.gr 92903 0 0 2009-11-08 01:20:09
92904 gizmodo.it 77405 4 4,980 2010-03-16 02:19:34
92905 elite.net 92905 0 0 2009-11-08 01:20:09
92906 jquerystyle.com 92906 0 0 2009-11-08 01:20:09
92907 indeed.es 92907 0 0 2009-11-08 01:20:09
92908 autoxy.it 92908 0 0 2009-11-08 01:20:09
92909 affinitiz.com 92909 0 0 2009-11-08 01:20:09
92910 e2conf.com 92910 0 0 2009-11-08 01:20:09
92911 sexmellowness.com 92911 0 0 2009-11-08 01:20:09
92912 vkontakdte.ru 92912 0 0 2009-11-08 01:20:09
92913 hinnavaatlus.ee 92913 0 0 2009-11-08 01:20:09
92914 seriesvip.net 92914 0 0 2009-11-08 01:20:09
92915 secretcity.de 92915 0 0 2009-11-08 01:20:09
92916 uploadit.org 92916 0 0 2009-11-08 01:20:09
92917 bindassdesi.com 92917 0 0 2009-11-08 01:20:09
92918 topantimalwarescan7.com 92918 0 0 2009-11-08 01:20:09
92919 all-linkdirectory.com 92919 0 0 2009-11-08 01:20:09
92920 honda.co.th 92920 0 0 2009-11-08 01:20:09
92921 homeido.com 92921 0 0 2009-11-08 01:20:09
92922 xxxvideosex.org 92922 0 0 2009-11-08 01:20:09
92923 musthavemarketing.com 92923 0 0 2009-11-08 01:20:09
92924 flashgames.ru 92924 0 0 2009-11-08 01:20:09
92925 19kiss.com 96357 1 1 2010-02-22 13:59:51
92926 uslanmaz.com 92926 0 0 2009-11-08 01:20:09
92927 taschengeldladies.de 92927 0 0 2009-11-08 01:20:09
92928 holidaysandcash.com 92928 0 0 2009-11-08 01:20:09
92929 space.net 97368 8 344 2010-02-19 09:45:07
92930 funnypart.com 92930 0 0 2009-11-08 01:20:09
92931 dogspot.de 92931 0 0 2009-11-08 01:20:09
92932 dotnetsource.com 92932 0 0 2009-11-08 01:20:09
92933 fuk.ca 92933 0 0 2009-11-08 01:20:09
92934 zonavirus.com 92934 0 0 2009-11-08 01:20:09
92935 volksblad.com 92935 0 0 2009-11-08 01:20:09
92936 crainsdetroit.com 92936 0 0 2009-11-08 01:20:09
92937 richmond.com 92937 0 0 2009-11-08 01:20:09
92938 rentalcars.com 92938 0 0 2009-11-08 01:20:09
92939 cashforsextape.com 92939 0 0 2009-11-08 01:20:09
92940 nregalndc.nic.in 92940 0 0 2009-11-08 01:20:09
92941 golf3.de 129012 3 5,740 2010-02-09 13:02:01
92942 heaven2share.com 92942 0 0 2009-11-08 01:20:09
92943 pushsquare.com 92943 0 0 2009-11-08 01:20:09
92944 123indianonline.com 96572 2 1,070 2010-02-04 05:59:56
92945 peoplesboard.com 92945 0 0 2009-11-08 01:20:09
92946 newsfactor.com 92946 0 0 2009-11-08 01:20:09
92947 baiduyy.com 92947 0 0 2009-11-08 01:20:09
92948 reverse-reverse.com 92948 0 0 2009-11-08 01:20:09
92949 maxi-pedia.com 92949 0 0 2009-11-08 01:20:09
92950 bigglook.com 113299 5 12,300 2010-02-10 08:37:17
92951 ashena.ir 92951 0 0 2009-11-08 01:20:09
92952 noob.jp 87467 0 11,300 2010-02-14 18:57:01
92953 findrealty.ru 92953 0 0 2009-11-08 01:20:09
92954 autov.com.cn 92954 0 0 2009-11-08 01:20:09
92955 erfan.ir 92955 0 0 2009-11-08 01:20:09
92956 canlifutboltv.com 92956 0 0 2009-11-08 01:20:09
92957 yapclub.com 92957 0 0 2009-11-08 01:20:09
92958 swm.de 74097 5 1,570 2010-03-30 22:16:52
92959 adobe.co.jp 92959 0 0 2009-11-08 01:20:09
92960 coop.no 92960 0 0 2009-11-08 01:20:09
92961 quoteforum.ru 92961 0 0 2009-11-08 01:20:09
92962 cmew.org.cn 92962 0 0 2009-11-08 01:20:09
92963 darkmachine.pl 92963 0 0 2009-11-08 01:20:09
92964 hungry-hackers.com 92964 0 0 2009-11-08 01:20:09
92965 cc2.co.jp 92965 0 0 2009-11-08 01:20:09
92966 webafiliados.com.br 92966 0 0 2009-11-08 01:20:09
92967 babr.ru 92967 0 0 2009-11-08 01:20:09
92968 audiojelly.com 92968 0 0 2009-11-08 01:20:09
92969 kidzworld.co.za 92969 0 0 2009-11-08 01:20:09
92970 sense-lang.org 92970 0 0 2009-11-08 01:20:09
92971 sikisiyoruz.com 92971 0 0 2009-11-08 01:20:09
92972 american-classifieds.net 92972 0 0 2009-11-08 01:20:09
92973 zuwg.com 92973 0 0 2009-11-08 01:20:09
92974 insanefreelancewriting.com 92974 0 0 2009-11-08 01:20:09
92975 howitshouldhaveended.com 92975 0 0 2009-11-08 01:20:09
92976 sbc.edu 92976 0 0 2009-11-08 01:20:09
92977 soul-source.co.uk 92977 0 0 2009-11-08 01:20:09
92978 router-forum.de 92978 0 0 2009-11-08 01:20:09
92979 fuckingbound.com 92979 0 0 2009-11-08 01:20:09
92980 teensexmovs.net 92980 0 0 2009-11-08 01:20:09
92981 reliablecontact.com 92981 0 0 2009-11-08 01:20:09
92982 fuuzoku-tv.com 96340 3 4,140 2010-02-12 14:24:26
92983 kidport.com 92983 0 0 2009-11-08 01:20:09
92984 heiseidemocracy.com 92984 0 0 2009-11-08 01:20:09
92985 lemoneymag.fr 92985 0 0 2009-11-08 01:20:09
92986 do512.com 92986 0 0 2009-11-08 01:20:09
92987 popgadget.net 92987 0 0 2009-11-08 01:20:09
92988 star-clicks.com 92988 0 0 2009-11-08 01:20:09
92989 pagetraffic.org 92989 0 0 2009-11-08 01:20:09
92990 rewideo.com 92990 0 0 2009-11-08 01:20:09
92991 cubiclub.in.th 92991 0 0 2009-11-08 01:20:09
92992 mercuriovalpo.cl 92992 0 0 2009-11-08 01:20:09
92993 antimalwarescanner01.com 92993 0 0 2009-11-08 01:20:09
92994 webheimat.at 92994 0 0 2009-11-08 01:20:09
92995 esljobnetworks.com 92995 0 0 2009-11-08 01:20:09
92996 karlascloset.blogspot.com 92996 0 0 2009-11-08 01:20:09
92997 iamsujie.com 92997 0 0 2009-11-08 01:20:09
92998 jporn.net 92998 0 0 2009-11-08 01:20:09
92999 phimviet247.com 92999 0 0 2009-11-08 01:20:09
93000 alltebfamily.com 93000 0 0 2009-11-08 01:20:09
93001 francomacorisanos.com 93001 0 0 2009-11-08 01:20:09
93002 freemilfs.com 93002 0 0 2009-11-08 01:20:09
93003 yourfilehost888.com 93003 0 0 2009-11-08 01:20:09
93004 guguwang.com 93004 0 0 2009-11-08 01:20:09
93005 productivity501.com 93005 0 0 2009-11-08 01:20:09
93006 asks.jp 93006 0 0 2009-11-08 01:20:09
93007 beeplog.com 93007 0 0 2009-11-08 01:20:09
93008 blogmamma.it 71932 5 2,710 2010-02-14 03:02:16
93009 sportmotor.hu 93009 0 0 2009-11-08 01:20:09
93010 timeoutcn.com 93010 0 0 2009-11-08 01:20:09
93011 saygao.com 93011 0 0 2009-11-08 01:20:09
93012 wizishop.com 93012 0 0 2009-11-08 01:20:09
93013 godfathertraffic.com 93013 0 0 2009-11-08 01:20:09
93014 nessma.tv 93014 0 0 2009-11-08 01:20:09
93015 maywarez.ru 93015 0 0 2009-11-08 01:20:09
93016 211.103.90.59 399446 0 2 2010-04-10 05:16:01
93017 hiav.us 93017 0 0 2009-11-08 01:20:09
93018 securetrading.com 93018 0 0 2009-11-08 01:20:09
93019 lanshem.se 451679 0 876 2010-03-15 06:46:32
93020 afsz.hu 93020 0 0 2009-11-08 01:20:09
93021 uubrides.com 93021 0 0 2009-11-08 01:20:09
93022 myfrugalways.com 93022 0 0 2009-11-08 01:20:09
93023 xnove-filmesonline.blogspot.com 93023 0 0 2009-11-08 01:20:09
93024 baatplassen.no 93024 0 0 2009-11-08 01:20:09
93025 teachernet.gov.uk 93025 0 0 2009-11-08 01:20:09
93026 footagefirm.com 93026 0 0 2009-11-08 01:20:09
93027 mymonthlycycles.com 93027 0 0 2009-11-08 01:20:09
93028 stilettogirl.com 93028 0 0 2009-11-08 01:20:09
93029 omoshirogame.com 93029 0 0 2009-11-08 01:20:09
93030 ciplex.com 93030 0 0 2009-11-08 01:20:09
93031 andromedafree.it 93031 0 0 2009-11-08 01:20:09
93032 encodable.com 93032 0 0 2009-11-08 01:20:09
93033 sharingfreelive.net 93033 0 0 2009-11-08 01:20:09
93034 nudetube.com 93034 0 0 2009-11-08 01:20:09
93035 geizhals.eu 93035 0 0 2009-11-08 01:20:09
93036 hitachi.com.cn 93036 0 0 2009-11-08 01:20:09
93037 joesnewbalanceoutlet.com 93037 0 0 2009-11-08 01:20:09
93038 thebuzz.com 93038 0 0 2009-11-08 01:20:09
93039 vianettraining.com 93039 0 0 2009-11-08 01:20:09
93040 filmempfehlung.com 93040 0 0 2009-11-08 01:20:09
93041 owb.com 118452 6 335 2010-02-15 22:23:08
93042 tunisiana.com 93042 0 0 2009-11-08 01:20:09
93043 videosfever.com 93043 0 0 2009-11-08 01:20:09
93044 vnbb.com 257626 3 7,000 2010-03-06 11:55:33
93045 eliax.com 93045 0 0 2009-11-08 01:20:09
93046 hugege.com 93046 0 0 2009-11-08 01:20:09
93047 royalcaribbean-espanol.com 93047 0 0 2009-11-08 01:20:09
93048 freegames.de 93048 0 0 2009-11-08 01:20:09
93049 vdtonline.ro 93049 0 0 2009-11-08 01:20:09
93050 faq-mac.com 93050 0 0 2009-11-08 01:20:09
93051 websoft-ng.com 93051 0 0 2009-11-08 01:20:09
93052 giveindia.org 93052 0 0 2009-11-08 01:20:09
93053 clips.com 93053 0 0 2009-11-08 01:20:09
93054 gprocurement.go.th 80750 7 856,000 2010-04-12 08:00:39
93055 elitemate.com 93055 0 0 2009-11-08 01:20:09
93056 devere.co.uk 93056 0 0 2009-11-08 01:20:09
93057 aixchina.net 93057 0 0 2009-11-08 01:20:09
93058 bestgraph.com 93058 0 0 2009-11-08 01:20:09
93059 emo-corner.com 93059 0 0 2009-11-08 01:20:09
93060 accuracast.com 93060 0 0 2009-11-08 01:20:09
93061 tsang.com 93061 0 0 2009-11-08 01:20:09
93062 dlooaty.com 93062 0 0 2009-11-08 01:20:09
93063 hlportal.de 93063 0 0 2009-11-08 01:20:09
93064 legs-r-us.com 93064 0 0 2009-11-08 01:20:09
93065 artknowledgenews.com 86185 5 68,100 2010-02-09 15:07:10
93066 bonnaroo.com 93066 0 0 2009-11-08 01:20:09
93067 ideate.co.za 93067 0 0 2009-11-08 01:20:09
93068 roadracingworld.com 93068 0 0 2009-11-08 01:20:09
93069 theeducationedge.com 93069 0 0 2009-11-08 01:20:09
93070 recetas.net 93070 0 0 2009-11-08 01:20:09
93071 pse.com 93071 0 0 2009-11-08 01:20:09
93072 avonarticles.com 99124 0 128 2010-02-13 10:17:15
93073 nasir.ir 93073 0 0 2009-11-08 01:20:09
93074 jypers.com 93074 0 0 2009-11-08 01:20:09
93075 myshedplans.com 93075 0 0 2009-11-08 01:20:09
93076 milliondollarjourney.com 93076 0 0 2009-11-08 01:20:09
93077 une.com.co 93077 0 0 2009-11-08 01:20:09
93078 mappery.com 93078 0 0 2009-11-08 01:20:09
93079 pocruises.com 93079 0 0 2009-11-08 01:20:09
93080 life-enthusiast.com 93080 0 0 2009-11-08 01:20:09
93081 elsanglin.com 93081 0 0 2009-11-08 01:20:09
93082 belaruspartizan.org 93082 0 0 2009-11-08 01:20:09
93083 enterprisemembers.com 93083 0 0 2009-11-08 01:20:09
93084 4xjob.cn 93084 0 0 2009-11-08 01:20:09
93085 gesomoon.com 93085 0 0 2009-11-08 01:20:09
93086 freeadvertz.com 93086 0 0 2009-11-08 01:20:09
93087 angiessecretstash.com 93087 0 0 2009-11-08 01:20:09
93088 askapatient.com 93088 0 0 2009-11-08 01:20:09
93089 privesexopname.nl 93089 0 0 2009-11-08 01:20:09
93090 pokemon-project.com 93090 0 0 2009-11-08 01:20:09
93091 alterosa.com.br 120432 6 9,730 2010-02-13 14:56:52
93092 csebanking.it 93092 0 0 2009-11-08 01:20:09
93093 netopsiyon.com 93093 0 0 2009-11-08 01:20:09
93094 eonetwork.org 93094 0 0 2009-11-08 01:20:09
93095 nbk.com.kw 70070 0 23 2010-03-15 01:39:21
93096 trainsignal.com 93096 0 0 2009-11-08 01:20:09
93097 fumira.jp 93097 0 0 2009-11-08 01:20:09
93098 bt-italia.org 93098 0 0 2009-11-08 01:20:09
93099 skoda-auto.co.in 93099 0 0 2009-11-08 01:20:09
93100 travelgurideonline.com 93100 0 0 2009-11-08 01:20:09
93101 gameplay.com.ua 93101 0 0 2009-11-08 01:20:09
93102 hotrodders.com 93102 0 0 2009-11-08 01:20:09
93103 sohosted.com 93103 0 0 2009-11-08 01:20:09
93104 ibmmainframes.com 93104 0 0 2009-11-08 01:20:09
93105 hket.com 79004 6 8,960 2010-03-16 01:19:47
93106 datanta-brasil.com 93106 0 0 2009-11-08 01:20:09
93107 paradigit.nl 93107 0 0 2009-11-08 01:20:09
93108 yhfc.gov.cn 93108 0 0 2009-11-08 01:20:09
93109 snowboardermag.com 93109 0 0 2009-11-08 01:20:09
93110 pressbot.net 93110 0 0 2009-11-08 01:20:09
93111 explorewww.com 93111 0 0 2009-11-08 01:20:09
93112 fantasy-fan.info 93112 0 0 2009-11-08 01:20:09
93113 porticolegal.com 93113 0 0 2009-11-08 01:20:09
93114 anaivanovic.com 93114 0 0 2009-11-08 01:20:09
93115 espritshop.com 93115 0 0 2009-11-08 01:20:09
93116 incentreward.com 93116 0 0 2009-11-08 01:20:09
93117 wpguardian.com 93117 0 0 2009-11-08 01:20:09
93118 quechimba.net 93118 0 0 2009-11-08 01:20:09
93119 greatcoupons-online.com 93119 0 0 2009-11-08 01:20:09
93120 resumerabbit.com 93120 0 0 2009-11-08 01:20:09
93121 3bia.com 95662 1 158,000 2010-02-17 19:41:34
93122 epicski.com 76067 5 34,400 2010-03-18 18:35:51
93123 swbell.net 93123 0 0 2009-11-08 01:20:09
93124 chiplove.biz 93124 0 0 2009-11-08 01:20:09
93125 y2.cn 93125 0 0 2009-11-08 01:20:09
93126 advertising365.com 93126 0 0 2009-11-08 01:20:09
93127 nationalprwire.com 93127 0 0 2009-11-08 01:20:09
93128 spicylingerie.com 93128 0 0 2009-11-08 01:20:09
93129 burn4free.com 93129 0 0 2009-11-08 01:20:09
93130 pcforum.com.br 93130 0 0 2009-11-08 01:20:09
93131 plaza24hour.com 93131 0 0 2009-11-08 01:20:09
93132 vwclub.bg 105874 3 65,900 2010-03-03 14:56:06
93133 pba.com 93133 0 0 2009-11-08 01:20:09
93134 onjori4.blogspot.com 93134 0 0 2009-11-08 01:20:09
93135 my-addr.com 93135 0 0 2009-11-08 01:20:09
93136 15fun.com 111193 4 50,300 2010-04-10 12:41:02
93137 walladoo-limited.com 93137 0 0 2009-11-08 01:20:09
93138 multilex.ru 93138 0 0 2009-11-08 01:20:09
93139 flanita.com 93139 0 0 2009-11-08 01:20:09
93140 sakatsuku.com 93140 0 0 2009-11-08 01:20:09
93141 hasin.wordpress.com 93141 0 0 2009-11-08 01:20:09
93142 worldlabel.com 93142 0 0 2009-11-08 01:20:09
93143 the7figuresecrets.com 93143 0 0 2009-11-08 01:20:09
93144 lemongraphic.net 93144 0 0 2009-11-08 01:20:09
93145 how-to-draw-and-paint.com 93145 0 0 2009-11-08 01:20:09
93146 d11d.com 93146 0 0 2009-11-08 01:20:09
93147 dreamblog.jp 93147 0 0 2009-11-08 01:20:09
93148 toolmarts.com 93148 0 0 2009-11-08 01:20:09
93149 website-in-a-weekend.net 93149 0 0 2009-11-08 01:20:09
93150 burnworld.com 83856 5 1,050 2010-02-02 10:36:19
93151 50kobo.com 93151 0 0 2009-11-08 01:20:09
93152 cenkoyun.com 93152 0 0 2009-11-08 01:20:09
93153 oyun1game.com 93153 0 0 2009-11-08 01:20:09
93154 sweetnicki.com 93154 0 0 2009-11-08 01:20:09
93155 series-8.blogspot.com 93155 0 0 2009-11-08 01:20:09
93156 taimiah.org 93156 0 0 2009-11-08 01:20:09
93157 contaspremiadas.com.br 93157 0 0 2009-11-08 01:20:09
93158 paulocoelhoblog.com 93158 0 0 2009-11-08 01:20:09
93159 flufacts.com 93159 0 0 2009-11-08 01:20:09
93160 luv-emo.com 93160 0 0 2009-11-08 01:20:09
93161 searchrank.com 93161 0 0 2009-11-08 01:20:09
93162 netzgesta.de 93162 0 0 2009-11-08 01:20:09
93163 amibajuuza.com 93163 0 0 2009-11-08 01:20:09
93164 bizfilings.com 93164 0 0 2009-11-08 01:20:09
93165 clint.be 36513 4 17,500 2010-02-12 07:25:04
93166 first-handyshop.de 93166 0 0 2009-11-08 01:20:09
93167 recycledfrockery.com 93167 0 0 2009-11-08 01:20:09
93168 linkshare.co.uk 93168 0 0 2009-11-08 01:20:09
93169 furniturebbs.com 93169 0 0 2009-11-08 01:20:09
93170 latribune-online.com 93170 0 0 2009-11-08 01:20:09
93171 riyi.net 93171 0 0 2009-11-08 01:20:09
93172 collectplus.co.uk 93172 0 0 2009-11-08 01:20:09
93173 colombialink.com 93173 0 0 2009-11-08 01:20:09
93174 1cdkey.com 73763 2 359 2010-03-14 23:20:28
93175 m-mart.co.jp 116137 4 3,490 2010-03-06 05:18:48
93176 autopixx.de 93176 0 0 2009-11-08 01:20:09
93177 linklog.com.br 93177 0 0 2009-11-08 01:20:09
93178 cumt.edu.cn 93178 0 0 2009-11-08 01:20:09
93179 itdocs.org 93179 0 0 2009-11-08 01:20:09
93180 trancetraffic.com 93180 0 0 2009-11-08 01:20:09
93181 giantfood.com 93181 0 0 2009-11-08 01:20:09
93182 birddi.com 93182 0 0 2009-11-08 01:20:09
93183 pdc.tv 66690 5 802 2010-03-02 00:45:45
93184 hitwebdir.com 93184 0 0 2009-11-08 01:20:09
93185 quboke.com 93185 0 0 2009-11-08 01:20:09
93186 age-soft.co.jp 93186 0 0 2009-11-08 01:20:09
93187 saint-marc-hd.com 93187 0 0 2009-11-08 01:20:09
93188 ballouchi.com 93188 0 0 2009-11-08 01:20:09
93189 shop-021.de 93189 0 0 2009-11-08 01:20:09
93190 r4.com 78999 0 812 2010-03-09 19:50:39
93191 countrylife.co.uk 93191 0 0 2009-11-08 01:20:09
93192 snort.org 93192 0 0 2009-11-08 01:20:09
93193 dengi.ua 93193 0 0 2009-11-08 01:20:09
93194 magicaljellybean.com 93194 0 0 2009-11-08 01:20:09
93195 mwusers.com 93195 0 0 2009-11-08 01:20:09
93196 gamehopper.net 93196 0 0 2009-11-08 01:20:09
93197 solorecursos.com 93197 0 0 2009-11-08 01:20:09
93198 edu-all.ru 93198 0 0 2009-11-08 01:20:09
93199 at-mix.de 111590 3 5,790 2010-03-23 18:35:11
93200 area-integral.net 93200 0 0 2009-11-08 01:20:09
93201 ravand.ca 93201 0 0 2009-11-08 01:20:09
93202 atstyle.biz 93202 0 0 2009-11-08 01:20:09
93203 deusto.es 93203 0 0 2009-11-08 01:20:09
93204 kwangwoon.ac.kr 93204 0 0 2009-11-08 01:20:09
93205 mikegfreecd.com 116760 1 60 2010-02-09 21:32:00
93206 nice-autosurf.com 93206 0 0 2009-11-08 01:20:09
93207 byroncrawford.com 93207 0 0 2009-11-08 01:20:09
93208 yourversion.com 93208 0 0 2009-11-08 01:20:09
93209 01lx.net 93209 0 0 2009-11-08 01:20:09
93210 memory-of.com 93210 0 0 2009-11-08 01:20:09
93211 lipstick.com 93211 0 0 2009-11-08 01:20:09
93212 jeel-libya.net 93212 0 0 2009-11-08 01:20:09
93213 pokemon-france.com 109666 5 6,580 2010-02-12 04:20:26
93214 setif.info 93214 0 0 2009-11-08 01:20:09
93215 insightnewsandfeatures.com 93215 0 0 2009-11-08 01:20:09
93216 fachwerk.de 93216 0 0 2009-11-08 01:20:09
93217 cometbird.com 93217 0 0 2009-11-08 01:20:09
93218 davidjenyns.com 93218 0 0 2009-11-08 01:20:09
93219 chaomoli.cn 93219 0 0 2009-11-08 01:20:09
93220 eradar.es 93220 0 0 2009-11-08 01:20:09
93221 chulabook.com 107329 7 32,500 2010-02-12 00:21:48
93222 identifyepisodes.com 93222 0 0 2009-11-08 01:20:09
93223 afotosporno.com 93223 0 0 2009-11-08 01:20:09
93224 nautica.it 93224 0 0 2009-11-08 01:20:09
93225 yoshidakaban.com 93225 0 0 2009-11-08 01:20:09
93226 refdev.com 93226 0 0 2009-11-08 01:20:09
93227 snods.com 109996 3 306 2010-02-06 02:14:55
93228 sbsc.com.vn 93228 0 0 2009-11-08 01:20:09
93229 thecourier.com 93229 0 0 2009-11-08 01:20:09
93230 yahyahawwa.com 93230 0 0 2009-11-08 01:20:09
93231 piticipecreier.ro 93231 0 0 2009-11-08 01:20:09
93232 gilletts.com.au 93232 0 0 2009-11-08 01:20:09
93233 scootergalleri.dk 93233 0 0 2009-11-08 01:20:09
93234 superdeboer.nl 93234 0 0 2009-11-08 01:20:09
93235 millionairemate.com 93235 0 0 2009-11-08 01:20:09
93236 metropolehaiti.com 93236 0 0 2009-11-08 01:20:09
93237 ufs.ac.za 93237 0 0 2009-11-08 01:20:09
93238 dayhand.com 93238 0 0 2009-11-08 01:20:09
93239 marketing-mastermind.com 93239 0 0 2009-11-08 01:20:09
93240 betterwebdirectory.com 93240 0 0 2009-11-08 01:20:09
93241 medlux.ru 91332 5 385 2010-03-06 10:46:35
93242 store-factory.com 93242 0 0 2009-11-08 01:20:09
93243 electrictext.com 93243 0 0 2009-11-08 01:20:09
93244 boxwave.com 93244 0 0 2009-11-08 01:20:09
93245 travelagentcentral.com 93245 0 0 2009-11-08 01:20:09
93246 elastix.org 93246 0 0 2009-11-08 01:20:09
93247 elephantjournal.com 93247 0 0 2009-11-08 01:20:09
93248 paipai88.com 93248 0 0 2009-11-08 01:20:09
93249 jula.se 75455 5 3,930 2010-02-12 06:44:04
93250 moviecitynews.com 93250 0 0 2009-11-08 01:20:09
93251 21mmo.com 93251 0 0 2009-11-08 01:20:09
93252 rubylearning.com 93252 0 0 2009-11-08 01:20:09
93253 mathopenref.com 93253 0 0 2009-11-08 01:20:09
93254 privacyrights.org 93254 0 0 2009-11-08 01:20:09
93255 tviexpresscycler.com 93255 0 0 2009-11-08 01:20:09
93256 forumammo.com 93256 0 0 2009-11-08 01:20:09
93257 fds.uz 340217 0 1 2010-02-08 21:26:21
93258 googlesniper.com 93258 0 0 2009-11-08 01:20:09
93259 veemei.com 93259 0 0 2009-11-08 01:20:09
93260 jazzguitar.be 93260 0 0 2009-11-08 01:20:09
93261 wildscreen.tv 93261 0 0 2009-11-08 01:20:09
93262 besttoysguide.com 306317 3 454 2010-04-11 22:35:35
93263 yousextube.com 93263 0 0 2009-11-08 01:20:09
93264 armbell.com 93264 0 0 2009-11-08 01:20:09
93265 feedafever.com 93265 0 0 2009-11-08 01:20:09
93266 adrianpelletier.com 93266 0 0 2009-11-08 01:20:09
93267 salope-et-vieille.com 97357 3 484 2010-04-12 18:58:03
93268 topforums.net 93268 0 0 2009-11-08 01:20:09
93269 ladbrokes.it 93269 0 0 2009-11-08 01:20:09
93270 kyutech.ac.jp 93270 0 0 2009-11-08 01:20:09
93271 w1-w1.com 93271 0 0 2009-11-08 01:20:09
93272 shixi8.com 93272 0 0 2009-11-08 01:20:09
93273 asianage.com 125790 7 13,200 2010-02-13 18:49:52
93274 06la.com 93274 0 0 2009-11-08 01:20:09
93275 matematikcafe.net 93275 0 0 2009-11-08 01:20:09
93276 bcm.edu 93276 0 0 2009-11-08 01:20:09
93277 youtubeproxy.org 93277 0 0 2009-11-08 01:20:09
93278 similac.com 101865 6 2,230 2010-04-05 06:46:16
93279 hdcmr.com 93279 0 0 2009-11-08 01:20:09
93280 600z.com 84292 0 1 2010-03-27 09:34:33
93281 station182.com 93281 0 0 2009-11-08 01:20:09
93282 titanmen.com 93282 0 0 2009-11-08 01:20:09
93283 laut.fm 97208 5 1,030 2010-03-04 21:42:07
93284 webmallindia.com 93284 0 0 2009-11-08 01:20:09
93285 12buzz.com 132159 3 1,580 2010-02-17 19:56:30
93286 wildpornreview.com 93286 0 0 2009-11-08 01:20:09
93287 adicate.com 93287 0 0 2009-11-08 01:20:09
93288 oil-gas.kz 93288 0 0 2009-11-08 01:20:09
93289 webgarden.com 93289 0 0 2009-11-08 01:20:09
93290 doramix.com 93290 0 0 2009-11-08 01:20:09
93291 hercity.com 93291 0 0 2009-11-08 01:20:09
93292 all-navi.jp 93292 0 0 2009-11-08 01:20:09
93293 topcard.co.jp 93293 0 0 2009-11-08 01:20:09
93294 viewgals.com 93294 0 0 2009-11-08 01:20:09
93295 domuzgribi.net 93295 0 0 2009-11-08 01:20:09
93296 fisig.com 93296 0 0 2009-11-08 01:20:09
93297 oleole.fr 178909 3 272,000 2010-03-09 13:38:36
93298 team-ncis.com 93298 0 0 2009-11-08 01:20:09
93299 amateurpornblog.com 93299 0 0 2009-11-08 01:20:09
93300 sme.gov.cn 93300 0 0 2009-11-08 01:20:09
93301 anxz.com 93301 0 0 2009-11-08 01:20:09
93302 roidv.com 93302 0 0 2009-11-08 01:20:09
93303 shippuden.tv 93303 0 0 2009-11-08 01:20:09
93304 goidirectory.nic.in 93304 0 0 2009-11-08 01:20:09
93305 thinkastro.com 93305 0 0 2009-11-08 01:20:09
93306 cnmn.com.cn 93306 0 0 2009-11-08 01:20:09
93307 quakenet.org 93307 0 0 2009-11-08 01:20:09
93308 vorratsdatenspeicherung.de 123400 7 4,380 2010-04-13 00:17:52
93309 tefl.com 136504 6 12,900 2010-03-09 19:54:14
93310 gesundheitlicheaufklaerung.de 93310 0 0 2009-11-08 01:20:09
93311 alajman.net 93311 0 0 2009-11-08 01:20:09
93312 hamburg-tourism.de 93312 0 0 2009-11-08 01:20:09
93313 gourmandix.com 93313 0 0 2009-11-08 01:20:09
93314 dears.in 93314 0 0 2009-11-08 01:20:09
93315 uni-passau.de 93315 0 0 2009-11-08 01:20:09
93316 quansite.net 93316 0 0 2009-11-08 01:20:09
93317 ps3ol.com 93317 0 0 2009-11-08 01:20:09
93318 inewsindia.com 93318 0 0 2009-11-08 01:20:09
93319 nightlab.by 93319 0 0 2009-11-08 01:20:09
93320 evlilikmerkezi.com 93320 0 0 2009-11-08 01:20:09
93321 in-stylefashion.de 93321 0 0 2009-11-08 01:20:09
93322 k12.me.us 93322 0 0 2009-11-08 01:20:09
93323 lotty.de 93323 0 0 2009-11-08 01:20:09
93324 dowith.ru 93324 0 0 2009-11-08 01:20:09
93325 bax-shop.nl 93325 0 0 2009-11-08 01:20:09
93326 lesbicanarias.es 93326 0 0 2009-11-08 01:20:09
93327 knu.ac.kr 93327 0 0 2009-11-08 01:20:09
93328 zol.ru 165818 5 29,900 2010-04-01 18:46:46
93329 spicynodes.org 93329 0 0 2009-11-08 01:20:09
93330 orcon.net.nz 93330 0 0 2009-11-08 01:20:09
93331 pedigree.com 93331 0 0 2009-11-08 01:20:09
93332 bytemark.co.uk 107975 7 4,210 2010-04-10 16:52:34
93333 polaris.co.in 93333 0 0 2009-11-08 01:20:09
93334 thorntons.co.uk 93334 0 0 2009-11-08 01:20:09
93335 hoisinhvien.net 93335 0 0 2009-11-08 01:20:09
93336 tinymixtapes.com 93336 0 0 2009-11-08 01:20:09
93337 cironline.ru 93337 0 0 2009-11-08 01:20:09
93338 subhavaastu.com 93338 0 0 2009-11-08 01:20:09
93339 goodsamclub.com 93339 0 0 2009-11-08 01:20:09
93340 windows-vista-update.com 93340 0 0 2009-11-08 01:20:09
93341 paradalesbica.com.br 93341 0 0 2009-11-08 01:20:09
93342 alsat.co.uk 93342 0 0 2009-11-08 01:20:09
93343 nanrenzhuang.net 93343 0 0 2009-11-08 01:20:09
93344 unitybox.de 93344 0 0 2009-11-08 01:20:09
93345 thanhniennews.com 93345 0 0 2009-11-08 01:20:09
93346 weihnachtsmarkt-deutschland.de 93346 0 0 2009-11-08 01:20:09
93347 dga.jp 93347 0 0 2009-11-08 01:20:09
93348 unafuente.com 93348 0 0 2009-11-08 01:20:09
93349 baixakigratis.net 93349 0 0 2009-11-08 01:20:09
93350 iceagenow.com 93350 0 0 2009-11-08 01:20:09
93351 mnec.gr 115877 8 6,560 2010-02-15 22:12:19
93352 designersareesalwar.com 93352 0 0 2009-11-08 01:20:09
93353 insureandgo.com 93353 0 0 2009-11-08 01:20:09
93354 hiplayers.com 93354 0 0 2009-11-08 01:20:09
93355 mobilestyle.jp 93355 0 0 2009-11-08 01:20:09
93356 komarketingassociates.com 93356 0 0 2009-11-08 01:20:09
93357 safarishop.com.br 93357 0 0 2009-11-08 01:20:09
93358 trifoxmedia.com 93358 0 0 2009-11-08 01:20:09
93359 jasonmoffatt.com 93359 0 0 2009-11-08 01:20:09
93360 fanficaddiction.com.br 93360 0 0 2009-11-08 01:20:09
93361 sexcash.ru 93361 0 0 2009-11-08 01:20:09
93362 hotonlinenews.com 100147 4 4,750 2010-03-17 16:14:07
93363 shabcool.com 93363 0 0 2009-11-08 01:20:09
93364 lessonofpassion.com 93364 0 0 2009-11-08 01:20:09
93365 maxprosystem.com 93365 0 0 2009-11-08 01:20:09
93366 marines.mil 93366 0 0 2009-11-08 01:20:09
93367 createafreewebsite.net 93367 0 0 2009-11-08 01:20:09
93368 zipkinci.com 93368 0 0 2009-11-08 01:20:09
93369 callsource.com 93369 0 0 2009-11-08 01:20:09
93370 noneweb.com 93370 0 0 2009-11-08 01:20:09
93371 cuales.fm 93371 0 0 2009-11-08 01:20:09
93372 prospector.cz 93372 0 0 2009-11-08 01:20:09
93373 growmap.com 93373 0 0 2009-11-08 01:20:09
93374 tube43.com 93374 0 0 2009-11-08 01:20:09
93375 05505.cn 93375 0 0 2009-11-08 01:20:09
93376 mtv.pt 212800 5 24,900 2010-03-03 07:49:46
93377 watchindia.tv 100947 5 482 2010-02-27 10:47:04
93378 unsorted.ru 93378 0 0 2009-11-08 01:20:09
93379 geeksandgod.com 93379 0 0 2009-11-08 01:20:09
93380 dtmpower.net 93380 0 0 2009-11-08 01:20:09
93381 nickatnite.com 93381 0 0 2009-11-08 01:20:09
93382 sportsinjurybulletin.com 93382 0 0 2009-11-08 01:20:09
93383 localdatabase.com 93383 0 0 2009-11-08 01:20:09
93384 barcamania.com 93384 0 0 2009-11-08 01:20:09
93385 qqtwins.com 93385 0 0 2009-11-08 01:20:09
93386 f2bbs.com 93386 0 0 2009-11-08 01:20:09
93387 pinoyliterotica.com 93387 0 0 2009-11-08 01:20:09
93388 deepspacetraffic.com 93388 0 0 2009-11-08 01:20:09
93389 afgirls.net 6091201 0 0 2010-06-10 14:45:46
93390 pipeten.com 93390 0 0 2009-11-08 01:20:09
93391 hdwallpapers.in 93391 0 0 2009-11-08 01:20:09
93392 openttd.org 93392 0 0 2009-11-08 01:20:09
93393 hamienet.com 93393 0 0 2009-11-08 01:20:09
93394 list-your-sites.com 93394 0 0 2009-11-08 01:20:09
93395 xynbnb.com 93395 0 0 2009-11-08 01:20:09
93396 sitiohispano.com 93396 0 0 2009-11-08 01:20:09
93397 love-quotes-and-quotations.com 93397 0 0 2009-11-08 01:20:09
93398 nihoncar.com 93398 0 0 2009-11-08 01:20:09
93399 fortress-web.com 93399 0 0 2009-11-08 01:20:09
93400 yauto.cz 93400 0 0 2009-11-08 01:20:09
93401 webnary.com 93401 0 0 2009-11-08 01:20:09
93402 e-s-tunis.com 93402 0 0 2009-11-08 01:20:09
93403 free-ebooks-download.org 93403 0 0 2009-11-08 01:20:09
93404 suntuubi.com 93404 0 0 2009-11-08 01:20:09
93405 honestwife.com 93405 0 0 2009-11-08 01:20:09
93406 yu4you.com 123371 5 374,000 2010-04-07 11:36:04
93407 scuolaelettrica.it 93407 0 0 2009-11-08 01:20:09
93408 woodnet.net 93408 0 0 2009-11-08 01:20:09
93409 islamup.com 93409 0 0 2009-11-08 01:20:09
93410 x-y.net 93410 0 0 2009-11-08 01:20:09
93411 nsc.gov.tw 93411 0 0 2009-11-08 01:20:09
93412 irquest.com 93412 0 0 2009-11-08 01:20:09
93413 hkflash.com 93413 0 0 2009-11-08 01:20:09
93414 websitemarketingplan.com 93414 0 0 2009-11-08 01:20:09
93415 yooiu.com 93415 0 0 2009-11-08 01:20:09
93416 jdypgxw.com 93416 0 0 2009-11-08 01:20:09
93417 loterieplus.com 93417 0 0 2009-11-08 01:20:09
93418 itri.org.tw 93418 0 0 2009-11-08 01:20:09
93419 siccness.net 93419 0 0 2009-11-08 01:20:09
93420 supercines.com 93420 0 0 2009-11-08 01:20:09
93421 messerforum.net 93421 0 0 2009-11-08 01:20:09
93422 poslovniforum.hr 93422 0 0 2009-11-08 01:20:09
93423 bantleb.com 93423 0 0 2009-11-08 01:20:09
93424 gosee.de 93424 0 0 2009-11-08 01:20:09
93425 rachelzoe.com 112082 4 197 2010-02-20 01:55:19
93426 sweethandjob.net 93426 0 0 2009-11-08 01:20:09
93427 tnmmu.ac.in 312365 6 533 2010-02-11 17:55:21
93428 architecturesdesign.com 93428 0 0 2009-11-08 01:20:09
93429 private-fxclub.com 93429 0 0 2009-11-08 01:20:09
93430 insidemylaptop.com 93430 0 0 2009-11-08 01:20:09
93431 mixfiend.com 93431 0 0 2009-11-08 01:20:09
93432 googobits.com 93432 0 0 2009-11-08 01:20:09
93433 alamo.edu 93433 0 0 2009-11-08 01:20:09
93434 wildhorseperformancemarketing.com 93434 0 0 2009-11-08 01:20:09
93435 codechef.com 93435 0 0 2009-11-08 01:20:09
93436 techmaish.com 93436 0 0 2009-11-08 01:20:09
93437 csscorp.com 93437 0 0 2009-11-08 01:20:09
93438 edudel.nic.in 93438 0 0 2009-11-08 01:20:09
93439 gap-system.org/~history 93439 0 0 2009-11-08 01:20:09
93440 ww80.com 93440 0 0 2009-11-08 01:20:09
93441 derivion.com 93441 0 0 2009-11-08 01:20:09
93442 d21c.com 93442 0 0 2009-11-08 01:20:09
93443 linkeater.net 93443 0 0 2009-11-08 01:20:09
93444 umusic.com 93444 0 0 2009-11-08 01:20:09
93445 57cha.com 93445 0 0 2009-11-08 01:20:09
93446 porn101.com 93446 0 0 2009-11-08 01:20:09
93447 castima.jp 93447 0 0 2009-11-08 01:20:09
93448 3rbsc.com 63209 2 12,000 2010-02-18 13:37:41
93449 cbr.gov.pk 104175 7 12,900 2010-03-15 00:31:33
93450 dmaresponsibility.org 93450 0 0 2009-11-08 01:20:09
93451 jocuri-barbie.us 0 2 1,310 2010-03-07 12:43:17
93452 medikforum.ru 93452 0 0 2009-11-08 01:20:09
93453 betez.com 93453 0 0 2009-11-08 01:20:09
93454 majaa.org 56331 1 9,080 2010-03-08 07:26:42
93455 billiebombs.com 93455 0 0 2009-11-08 01:20:09
93456 successconsciousness.com 93456 0 0 2009-11-08 01:20:09
93457 atlants.lv 93457 0 0 2009-11-08 01:20:09
93458 adelixir.com 93458 0 0 2009-11-08 01:20:09
93459 coop-albatross.info 93459 0 0 2009-11-08 01:20:09
93460 sevginehri.gen.tr 93460 0 0 2009-11-08 01:20:09
93461 oicq88.com 93461 0 0 2009-11-08 01:20:09
93462 mobread.com 93462 0 0 2009-11-08 01:20:09
93463 phildar.fr 93463 0 0 2009-11-08 01:20:09
93464 islandnet.com 84725 6 11,600 2010-04-07 10:15:02
93465 kovshenin.com 93465 0 0 2009-11-08 01:20:09
93466 uksoccershop.com 93466 0 0 2009-11-08 01:20:09
93467 supplyframe.com 93467 0 0 2009-11-08 01:20:09
93468 nishinokana.com 93468 0 0 2009-11-08 01:20:09
93469 namedrive.de 93469 0 0 2009-11-08 01:20:09
93470 incestartwork.com 93470 0 0 2009-11-08 01:20:09
93471 regeringen.se 93471 0 0 2009-11-08 01:20:09
93472 dotcomwomen.com 93472 0 0 2009-11-08 01:20:09
93473 win7vista.com 93473 0 0 2009-11-08 01:20:09
93474 touchmymelons.com 93474 0 0 2009-11-08 01:20:09
93475 fsuniverse.net 93475 0 0 2009-11-08 01:20:09
93476 analshocker.com 93476 0 0 2009-11-08 01:20:09
93477 eguiders.com 93477 0 0 2009-11-08 01:20:09
93478 pozdravim.com 93478 0 0 2009-11-08 01:20:09
93479 bookoopedia.com 93479 0 0 2009-11-08 01:20:09
93480 server01.com 93480 0 0 2009-11-08 01:20:09
93481 ezpctips.blogspot.com 93481 0 0 2009-11-08 01:20:09
93482 professorlayton2walkthrough.blogspot.com 93482 0 0 2009-11-08 01:20:09
93483 tripplite.com 93483 0 0 2009-11-08 01:20:09
93484 divx-download.com 93484 0 0 2009-11-08 01:20:09
93485 bdu.ac.in 93485 0 0 2009-11-08 01:20:09
93486 collegeamateursfucking.com 93486 0 0 2009-11-08 01:20:09
93487 avmaroc.com 93487 0 0 2009-11-08 01:20:09
93488 sect.com 93488 0 0 2009-11-08 01:20:09
93489 hploco.com 93489 0 0 2009-11-08 01:20:09
93490 bighip.com 115827 3 123 2010-02-13 17:39:17
93491 idreamx.com 93491 0 0 2009-11-08 01:20:09
93492 softensive.de 93492 0 0 2009-11-08 01:20:09
93493 procontent.ru 93493 0 0 2009-11-08 01:20:09
93494 catholicculture.org 93494 0 0 2009-11-08 01:20:09
93495 bjtime.cn 93495 0 0 2009-11-08 01:20:09
93496 flux.com 58203 6 41,200 2010-03-03 08:34:54
93497 ieskok.lt 93497 0 0 2009-11-08 01:20:09
93498 cachedirectory.com 93498 0 0 2009-11-08 01:20:09
93499 gaycities.com 93499 0 0 2009-11-08 01:20:09
93500 531531.com 93500 0 0 2009-11-08 01:20:09
93501 six-swiss-exchange.com 93501 0 0 2009-11-08 01:20:09
93502 musicloops.com 93502 0 0 2009-11-08 01:20:09
93503 proposalkit.com 93503 0 0 2009-11-08 01:20:09
93504 iizle.net 93504 0 0 2009-11-08 01:20:09
93505 webropol.com 93505 0 0 2009-11-08 01:20:09
93506 yayanb.com 93506 0 0 2009-11-08 01:20:09
93507 digitimes.com.tw 93507 0 0 2009-11-08 01:20:09
93508 roseonlinegame.com 93508 0 0 2009-11-08 01:20:09
93509 popularliving.com 93509 0 0 2009-11-08 01:20:09
93510 myngle.com 93510 0 0 2009-11-08 01:20:09
93511 mondo3.com 93511 0 0 2009-11-08 01:20:09
93512 linkmanna.com 93512 0 0 2009-11-08 01:20:09
93513 pescapreco.com.br 93513 0 0 2009-11-08 01:20:09
93514 hayibo.com 93514 0 0 2009-11-08 01:20:09
93515 imoveiscuritiba.com.br 93515 0 0 2009-11-08 01:20:09
93516 bcoutlet.com 93516 0 0 2009-11-08 01:20:09
93517 musicostrov.ru 93517 0 0 2009-11-08 01:20:09
93518 free-iqtest.net 93518 0 0 2009-11-08 01:20:09
93519 advertt.com 93519 0 0 2009-11-08 01:20:09
93520 newslab.ru 93520 0 0 2009-11-08 01:20:09
93521 xinnb.com 42451 5 48,000 2010-02-18 21:08:39
93522 noob.hu 93522 0 0 2009-11-08 01:20:09
93523 worldlink.com.np 93523 0 0 2009-11-08 01:20:09
93524 blackhatautomation.com 93524 0 0 2009-11-08 01:20:09
93525 muyii.com 93525 0 0 2009-11-08 01:20:09
93526 eatyourkimchi.com 93526 0 0 2009-11-08 01:20:09
93527 justaskluke.com 93527 0 0 2009-11-08 01:20:09
93528 callawaygolfpreowned.com 114202 4 2,770 2010-02-14 12:07:04
93529 1powershop.com 86844 3 4,020 2010-02-19 03:30:39
93530 bidplacesb.com 93530 0 0 2009-11-08 01:20:09
93531 jxrtv.com 93531 0 0 2009-11-08 01:20:09
93532 al-dalel.com 93532 0 0 2009-11-08 01:20:09
93533 ourbloom.com 93533 0 0 2009-11-08 01:20:09
93534 h7.dion.ne.jp/~n_circus 93534 0 0 2009-11-08 01:20:09
93535 zutto.co.jp 93535 0 0 2009-11-08 01:20:09
93536 sporttoto.com 93536 0 0 2009-11-08 01:20:09
93537 speedoptimizer.com 93537 0 0 2009-11-08 01:20:09
93538 xdate.ch 93538 0 0 2009-11-08 01:20:09
93539 sportal.nu 93539 0 0 2009-11-08 01:20:09
93540 stupc.org 93540 0 0 2009-11-08 01:20:09
93541 syoboi.jp 93541 0 0 2009-11-08 01:20:09
93542 tez.com 119383 4 1,160 2010-02-09 22:28:12
93543 cflor.org 93543 0 0 2009-11-08 01:20:09
93544 itbusiness.ca 93544 0 0 2009-11-08 01:20:09
93545 softcorepics.net 93545 0 0 2009-11-08 01:20:09
93546 babooli.com 93546 0 0 2009-11-08 01:20:09
93547 pararius.nl 93547 0 0 2009-11-08 01:20:09
93548 fenardi.es 93548 0 0 2009-11-08 01:20:09
93549 u.tv 118677 5 35,600 2010-03-28 12:20:57
93550 se.com.sa 93550 0 0 2009-11-08 01:20:09
93551 alaworld.com 93551 0 0 2009-11-08 01:20:09
93552 taikaisyu.com 93552 0 0 2009-11-08 01:20:09
93553 namescout.com 93553 0 0 2009-11-08 01:20:09
93554 myblondies.com 93554 0 0 2009-11-08 01:20:09
93555 grundfos.com 93555 0 0 2009-11-08 01:20:09
93556 ares.net 93556 0 0 2009-11-08 01:20:09
93557 bloc.cat 93557 0 0 2009-11-08 01:20:09
93558 goldfishka.com 93558 0 0 2009-11-08 01:20:09
93559 klekoon.com 93559 0 0 2009-11-08 01:20:09
93560 atings.com 93560 0 0 2009-11-08 01:20:09
93561 contentspool.com 93561 0 0 2009-11-08 01:20:09
93562 afonb.com 55623 2 203 2010-03-09 13:31:16
93563 argentmania.com 93563 0 0 2009-11-08 01:20:09
93564 agnitum.com 93564 0 0 2009-11-08 01:20:09
93565 computerworld.com.tr 93565 0 0 2009-11-08 01:20:09
93566 gold-secrets.com 93566 0 0 2009-11-08 01:20:09
93567 iphonewalker.net 93567 0 0 2009-11-08 01:20:09
93568 chat4free.de 93568 0 0 2009-11-08 01:20:09
93569 060.es 93569 0 0 2009-11-08 01:20:09
93570 28ktv.com 93570 0 0 2009-11-08 01:20:09
93571 gregrickaby.com 93571 0 0 2009-11-08 01:20:09
93572 technovelgy.com 93572 0 0 2009-11-08 01:20:09
93573 lolipower.org 93573 0 0 2009-11-08 01:20:09
93574 keteke.com 102722 6 1,940 2010-03-15 21:42:49
93575 rackcorp.com 93575 0 0 2009-11-08 01:20:09
93576 tattoos-by-design.co.uk 93576 0 0 2009-11-08 01:20:09
93577 deepliquid.com 93577 0 0 2009-11-08 01:20:09
93578 homestars.com 93578 0 0 2009-11-08 01:20:09
93579 theleagueofmoveabletype.com 56846 6 106 2010-03-01 14:44:47
93580 egyfile.com 93580 0 0 2009-11-08 01:20:09
93581 schmap.it 53370 4 1,940 2010-02-12 04:34:04
93582 viet-dong-tam.com 93582 0 0 2009-11-08 01:20:09
93583 kornet.net 93583 0 0 2009-11-08 01:20:09
93584 directv.com.ve 69435 4 213 2010-04-10 17:21:50
93585 updrv.com 93585 0 0 2009-11-08 01:20:09
93586 sancoryjulian.com.ar 93586 0 0 2009-11-08 01:20:09
93587 iranhp.ir 93587 0 0 2009-11-08 01:20:09
93588 blackweb20.com 93588 0 0 2009-11-08 01:20:09
93589 erciyes.edu.tr 93589 0 0 2009-11-08 01:20:09
93590 dogreatgood.com 116333 7 36,700 2010-02-11 19:30:37
93591 bnt.bg 79828 7 351,000 2010-03-09 02:18:57
93592 niazmandi.com 93592 0 0 2009-11-08 01:20:09
93593 yacht.de 93593 0 0 2009-11-08 01:20:09
93594 youbet.com 120236 5 788 2010-03-13 22:12:29
93595 haxnetwork.net 93595 0 0 2009-11-08 01:20:09
93596 fichesdelecture.com 93596 0 0 2009-11-08 01:20:09
93597 tarbawiyat.net 93597 0 0 2009-11-08 01:20:09
93598 suck.uk.com 93598 0 0 2009-11-08 01:20:09
93599 collegeboyphysicals.com 93599 0 0 2009-11-08 01:20:09
93600 lzsq.net 93600 0 0 2009-11-08 01:20:09
93601 msappspace.com 93601 0 0 2009-11-08 01:20:09
93602 realtimeforex.com 93602 0 0 2009-11-08 01:20:09
93603 luxuryproperty.com 93603 0 0 2009-11-08 01:20:09
93604 myminsk.com 93604 0 0 2009-11-08 01:20:09
93605 botinok.co.il 75738 4 21,300 2010-02-10 04:29:13
93606 canon.com.hk 93606 0 0 2009-11-08 01:20:09
93607 cqhrss.gov.cn 93607 0 0 2009-11-08 01:20:09
93608 membershipmillionaire.com 93608 0 0 2009-11-08 01:20:09
93609 alteil.jp 127979 4 4,170 2010-02-06 02:27:31
93610 dolby.com 93610 0 0 2009-11-08 01:20:09
93611 mirbt.ru 93611 0 0 2009-11-08 01:20:09
93612 reedref.com 93612 0 0 2009-11-08 01:20:09
93613 zam.it 93613 0 0 2009-11-08 01:20:09
93614 egoov.com 93614 0 0 2009-11-08 01:20:09
93615 onlyinsanfrancisco.com 93615 0 0 2009-11-08 01:20:09
93616 vidown.com 107539 0 817 2010-03-14 08:46:16
93617 anbacom.com 93617 0 0 2009-11-08 01:20:09
93618 ityre.com 93618 0 0 2009-11-08 01:20:09
93619 listenlive.eu 93619 0 0 2009-11-08 01:20:09
93620 ma.gov.br 93620 0 0 2009-11-08 01:20:09
93621 retroeroticamovies.com 93621 0 0 2009-11-08 01:20:09
93622 commentsjunkie.com 93622 0 0 2009-11-08 01:20:09
93623 minisitefrog.com 93623 0 0 2009-11-08 01:20:09
93624 universalclass.com 93624 0 0 2009-11-08 01:20:09
93625 immofrance.com 93625 0 0 2009-11-08 01:20:09
93626 peters1.dk 93626 0 0 2009-11-08 01:20:09
93627 feebleminds-gifs.com 93627 0 0 2009-11-08 01:20:09
93628 cappelendamm.no 93628 0 0 2009-11-08 01:20:09
93629 moromie-dvd.net 93629 0 0 2009-11-08 01:20:09
93630 adr.it 93630 0 0 2009-11-08 01:20:09
93631 dolcegabbana.it 93631 0 0 2009-11-08 01:20:09
93632 vgsummit.com 93632 0 0 2009-11-08 01:20:09
93633 ahighheels.com 93633 0 0 2009-11-08 01:20:09
93634 anychart.com 89569 4 824 2010-02-13 09:09:59
93635 lostintechnology.com 93635 0 0 2009-11-08 01:20:09
93636 insidenova.com 93636 0 0 2009-11-08 01:20:09
93637 sgpinned.info 93637 0 0 2009-11-08 01:20:09
93638 hipso.cn 93638 0 0 2009-11-08 01:20:09
93639 wallaby.de 93639 0 0 2009-11-08 01:20:09
93640 freepowerboards.com 93640 0 0 2009-11-08 01:20:09
93641 jokesduniya.com 93641 0 0 2009-11-08 01:20:09
93642 youdata.com 93642 0 0 2009-11-08 01:20:09
93643 gurukrupacapital.com 93643 0 0 2009-11-08 01:20:09
93644 landlost.com 93644 0 0 2009-11-08 01:20:09
93645 feipinshougou.com.cn 93645 0 0 2009-11-08 01:20:09
93646 badgerandblade.com 93646 0 0 2009-11-08 01:20:09
93647 seenudecelebs.com 93647 0 0 2009-11-08 01:20:09
93648 tigerwoods.com 93648 0 0 2009-11-08 01:20:09
93649 learnthat.com 93649 0 0 2009-11-08 01:20:09
93650 schnaeppchenjagd.de 93650 0 0 2009-11-08 01:20:09
93651 italiq-expos.com 93651 0 0 2009-11-08 01:20:09
93652 yuntech.edu.tw 93652 0 0 2009-11-08 01:20:09
93653 newvirgineveryday.com 93653 0 0 2009-11-08 01:20:09
93654 ro-7.com 169258 1 173,000 2010-03-13 12:11:20
93655 expert-domains.com 93655 0 0 2009-11-08 01:20:09
93656 articleon.com 93656 0 0 2009-11-08 01:20:09
93657 smarton.ru 93657 0 0 2009-11-08 01:20:09
93658 videoedicion.org 93658 0 0 2009-11-08 01:20:09
93659 installerapps.com 93659 0 0 2009-11-08 01:20:09
93660 betjm.com 93660 0 0 2009-11-08 01:20:09
93661 autoblogcoaching.com 93661 0 0 2009-11-08 01:20:09
93662 lammsat.com 93662 0 0 2009-11-08 01:20:09
93663 nissinfoods.co.jp 93663 0 0 2009-11-08 01:20:09
93664 fix.az 93664 0 0 2009-11-08 01:20:09
93665 rummyroyal.com 93665 0 0 2009-11-08 01:20:09
93666 tak-media.com 93666 0 0 2009-11-08 01:20:09
93667 articles-freeway.com 93667 0 0 2009-11-08 01:20:09
93668 el7ad.com 61593 4 45,800 2010-03-15 15:08:59
93669 blueweburl.com 93669 0 0 2009-11-08 01:20:09
93670 f1technical.net 93670 0 0 2009-11-08 01:20:09
93671 thefabricofourlives.com 93671 0 0 2009-11-08 01:20:09
93672 pragcap.com 93672 0 0 2009-11-08 01:20:09
93673 11298.com 64085 1 2,920 2010-02-02 05:48:37
93674 prostoprint.com 93674 0 0 2009-11-08 01:20:09
93675 claroline.net 93675 0 0 2009-11-08 01:20:09
93676 civilservice.gov.uk 93676 0 0 2009-11-08 01:20:09
93677 sideshowcollectors.com 93677 0 0 2009-11-08 01:20:09
93678 surfoffline.com 93678 0 0 2009-11-08 01:20:09
93679 brightideas.com 93679 0 0 2009-11-08 01:20:09
93680 xishuiw.com 93680 0 0 2009-11-08 01:20:09
93681 info-month.com 93681 0 0 2009-11-08 01:20:09
93682 jdzj.com 93682 0 0 2009-11-08 01:20:09
93683 vmagazine.com 93683 0 0 2009-11-08 01:20:09
93684 ringaraja.net 93684 0 0 2009-11-08 01:20:09
93685 verunkasdreams.com 93685 0 0 2009-11-08 01:20:09
93686 activalive.com 93686 0 0 2009-11-08 01:20:09
93687 notasdefutbol.com 93687 0 0 2009-11-08 01:20:09
93688 nerfnow.com 93688 0 0 2009-11-08 01:20:09
93689 thorpepark.com 93689 0 0 2009-11-08 01:20:09
93690 4houraffiliate.com 82889 1 145 2010-02-10 17:03:48
93691 welcometothefamily.com 93691 0 0 2009-11-08 01:20:09
93692 timer-ua.com 93692 0 0 2009-11-08 01:20:09
93693 plowsite.com 93693 0 0 2009-11-08 01:20:09
93694 blog-jiji.com 93694 0 0 2009-11-08 01:20:09
93695 stevenerdmanczyk.net 93695 0 0 2009-11-08 01:20:09
93696 uihealthcare.com 93696 0 0 2009-11-08 01:20:09
93697 anwalt-suchservice.de 93697 0 0 2009-11-08 01:20:09
93698 stevespanglerscience.com 98555 6 3,030 2010-02-16 18:13:08
93699 rajeshpatel.net 93699 0 0 2009-11-08 01:20:09
93700 tov-movie.net 93700 0 0 2009-11-08 01:20:09
93701 sravni.ru 93701 0 0 2009-11-08 01:20:09
93702 acquisireclienti.com 93702 0 0 2009-11-08 01:20:09
93703 benimgorusum.com 93703 0 0 2009-11-08 01:20:09
93704 amdocs.com 93704 0 0 2009-11-08 01:20:09
93705 meet.de 89213 3 287 2010-02-19 10:40:38
93706 neosexgalleries.com 93706 0 0 2009-11-08 01:20:09
93707 karieri.bg 93707 0 0 2009-11-08 01:20:09
93708 tamilgrounds.com 93708 0 0 2009-11-08 01:20:09
93709 onelovenet.com 93709 0 0 2009-11-08 01:20:09
93710 turknorthamerica.com 93710 0 0 2009-11-08 01:20:09
93711 shimotsuke.co.jp 93711 0 0 2009-11-08 01:20:09
93712 iwantu.com 93712 0 0 2009-11-08 01:20:09
93713 khalaad.net 93713 0 0 2009-11-08 01:20:09
93714 photoblogawards.com 93714 0 0 2009-11-08 01:20:09
93715 microdiet.jp 93715 0 0 2009-11-08 01:20:09
93716 lupicia.com 93716 0 0 2009-11-08 01:20:09
93717 names4muslims.com 93717 0 0 2009-11-08 01:20:09
93718 flucount.org 93718 0 0 2009-11-08 01:20:09
93719 twilio.com 93719 0 0 2009-11-08 01:20:09
93720 nefesfilm.com 93720 0 0 2009-11-08 01:20:09
93721 autocashmethod.com 93721 0 0 2009-11-08 01:20:09
93722 interfax.com.ua 93722 0 0 2009-11-08 01:20:09
93723 maps.police.uk 93723 0 0 2009-11-08 01:20:09
93724 tdnet.info 93724 0 0 2009-11-08 01:20:09
93725 mindshareworld.com 93725 0 0 2009-11-08 01:20:09
93726 beyondferon.com 93726 0 0 2009-11-08 01:20:09
93727 shop-asp.de 93727 0 0 2009-11-08 01:20:09
93728 taiyabs.com 93728 0 0 2009-11-08 01:20:09
93729 oxid.it 94464 5 171 2010-02-14 19:55:31
93730 city-fm.ru 93730 0 0 2009-11-08 01:20:09
93731 ujs.edu.cn 93731 0 0 2009-11-08 01:20:09
93732 ps20.info 93732 0 0 2009-11-08 01:20:09
93733 d-dx.jp 97746 3 32,800 2010-02-12 06:47:34
93734 fromyouflowers.com 93734 0 0 2009-11-08 01:20:09
93735 kurtadult.org 93735 0 0 2009-11-08 01:20:09
93736 yooyoo360.com 93736 0 0 2009-11-08 01:20:09
93737 freelogs.com 93737 0 0 2009-11-08 01:20:09
93738 joinup.jp 93738 0 0 2009-11-08 01:20:09
93739 geocities.com/CapitolHill 93739 0 0 2009-11-08 01:20:09
93740 cnsat.net 93740 0 0 2009-11-08 01:20:09
93741 2ohost.com 232244 0 0 2010-02-05 12:34:29
93742 willamette.edu 93742 0 0 2009-11-08 01:20:09
93743 previewdirectory.co.uk 93743 0 0 2009-11-08 01:20:09
93744 website101.com 93744 0 0 2009-11-08 01:20:09
93745 hanquocngaynay.com 93745 0 0 2009-11-08 01:20:09
93746 rockerek.hu 93746 0 0 2009-11-08 01:20:09
93747 voipuser.org 93747 0 0 2009-11-08 01:20:09
93748 dramaserials.com 74781 3 599 2010-02-06 04:49:50
93749 deseoaprender.com 93749 0 0 2009-11-08 01:20:09
93750 vbcity.com 112659 5 51,900 2010-04-03 13:24:22
93751 exportprive.fr 61222 0 1,310 2010-02-06 05:30:23
93752 zicos.com 93752 0 0 2009-11-08 01:20:09
93753 joonmali.com 121910 1 261 2010-03-16 15:16:32
93754 karadakara.com 93754 0 0 2009-11-08 01:20:09
93755 autoniks.ru 93755 0 0 2009-11-08 01:20:09
93756 read.ru 93756 0 0 2009-11-08 01:20:09
93757 techwyse.com 93757 0 0 2009-11-08 01:20:09
93758 notiziarioitaliano.it 93758 0 0 2009-11-08 01:20:09
93759 herfirstlesbiansex.com 93759 0 0 2009-11-08 01:20:09
93760 picuploder.info 93760 0 0 2009-11-08 01:20:09
93761 101gayvideos.com 93761 0 0 2009-11-08 01:20:09
93762 internetsukses.com 93762 0 0 2009-11-08 01:20:09
93763 playboy.com.ru 93763 0 0 2009-11-08 01:20:09
93764 mop.ir 93764 0 0 2009-11-08 01:20:09
93765 additudemag.com 110669 6 13,400 2010-02-06 21:55:37
93766 profootballhof.com 93766 0 0 2009-11-08 01:20:09
93767 minisitegraphics.com 93767 0 0 2009-11-08 01:20:09
93768 mountaindew.com 93768 0 0 2009-11-08 01:20:09
93769 travelodge.com 93769 0 0 2009-11-08 01:20:09
93770 gamerhome.net 93770 0 0 2009-11-08 01:20:09
93771 unicefusa.org 93771 0 0 2009-11-08 01:20:09
93772 officialcarboncopypro.com 93772 0 0 2009-11-08 01:20:09
93773 asianappleseed.com 82367 0 191 2010-02-05 21:09:00
93774 pokemon-movie.jp 93774 0 0 2009-11-08 01:20:09
93775 wbur.org 93775 0 0 2009-11-08 01:20:09
93776 goobles.com 93776 0 0 2009-11-08 01:20:09
93777 metrotransit.org 93777 0 0 2009-11-08 01:20:09
93778 ftwmother.com 93778 0 0 2009-11-08 01:20:09
93779 eiu.com 93779 0 0 2009-11-08 01:20:09
93780 johnnybtruant.com 93780 0 0 2009-11-08 01:20:09
93781 mynet.cn 93781 0 0 2009-11-08 01:20:09
93782 vikingpasses.com 93782 0 0 2009-11-08 01:20:09
93783 cinecinecine.com 93783 0 0 2009-11-08 01:20:09
93784 futbolwallpapers.com 93784 0 0 2009-11-08 01:20:09
93785 forumx.hu 93785 0 0 2009-11-08 01:20:09
93786 cod6.org 93786 0 0 2009-11-08 01:20:09
93787 modrails.com 93787 0 0 2009-11-08 01:20:09
93788 weloveyouso.com 244580 5 2,290 2010-02-02 14:21:32
93789 putogle.com 93789 0 0 2009-11-08 01:20:09
93790 alhoolm.com 93790 0 0 2009-11-08 01:20:09
93791 dy.com.tr 93791 0 0 2009-11-08 01:20:09
93792 tippsundtricks24.de 93792 0 0 2009-11-08 01:20:09
93793 nuwireinvestor.com 93793 0 0 2009-11-08 01:20:09
93794 thanhlinh.net 93794 0 0 2009-11-08 01:20:09
93795 eslemployment.com 93795 0 0 2009-11-08 01:20:09
93796 dl-server.com 93796 0 0 2009-11-08 01:20:09
93797 tcpglobal.com 93797 0 0 2009-11-08 01:20:09
93798 phonespell.org 93798 0 0 2009-11-08 01:20:09
93799 uniube.br 93799 0 0 2009-11-08 01:20:09
93800 059rc.com 93800 0 0 2009-11-08 01:20:09
93801 netdreams.co.uk 93801 0 0 2009-11-08 01:20:09
93802 a1webdir.net 162014 0 274 2010-02-07 03:39:44
93803 uniasselvi.com.br 93803 0 0 2009-11-08 01:20:09
93804 saintphilip.info 93804 0 0 2009-11-08 01:20:09
93805 stroit.ru 93805 0 0 2009-11-08 01:20:09
93806 72dns.com 93806 0 0 2009-11-08 01:20:09
93807 tt001.com 118095 4 245 2010-03-04 08:02:28
93808 webgirlsonline.net 93808 0 0 2009-11-08 01:20:09
93809 symbianos.pl 93809 0 0 2009-11-08 01:20:09
93810 umin.jp 93810 0 0 2009-11-08 01:20:09
93811 homepage3.nifty.com/xrs 93811 0 0 2009-11-08 01:20:09
93812 maxiseo.com 93812 0 0 2009-11-08 01:20:09
93813 concours-fonction-publique.com 93813 0 0 2009-11-08 01:20:09
93814 100.100.7.100 93814 0 0 2009-11-08 01:20:09
93815 flyarb.com 93815 0 0 2009-11-08 01:20:09
93816 government.kz 93816 0 0 2009-11-08 01:20:09
93817 24.dk 128076 5 79,400 2010-03-30 14:46:57
93818 tiger-g.com 93818 0 0 2009-11-08 01:20:09
93819 ydetector.biz 93819 0 0 2009-11-08 01:20:09
93820 deepdo.com 93820 0 0 2009-11-08 01:20:09
93821 byte.nl 93821 0 0 2009-11-08 01:20:09
93822 sporting-heroes.net 93822 0 0 2009-11-08 01:20:09
93823 planet-wissen.de 93823 0 0 2009-11-08 01:20:09
93824 bloguedepierre.com 236055 0 0 2010-02-09 15:14:05
93825 pesstatsdatabase.com 93825 0 0 2009-11-08 01:20:09
93826 lovexingzuo.cn 93826 0 0 2009-11-08 01:20:09
93827 174.37.168.213 10526811 3 0 2010-02-27 07:59:30
93828 aviva.pl 93828 0 0 2009-11-08 01:20:09
93829 insicdesigns.com 93829 0 0 2009-11-08 01:20:09
93830 cindymovies.com 93830 0 0 2009-11-08 01:20:09
93831 shaaditimes.com 93831 0 0 2009-11-08 01:20:09
93832 3722.cn 93832 0 0 2009-11-08 01:20:09
93833 aryasat.ir 93833 0 0 2009-11-08 01:20:09
93834 nzbxxx.com 93834 0 0 2009-11-08 01:20:09
93835 ladylana.com 93835 0 0 2009-11-08 01:20:09
93836 betterbudgeting.com 93836 0 0 2009-11-08 01:20:09
93837 vazhno.ru 93837 0 0 2009-11-08 01:20:09
93838 monster.ch 73080 7 74,600 2010-03-15 22:35:55
93839 nmfn.com 93839 0 0 2009-11-08 01:20:09
93840 mcafeehelp.com 93840 0 0 2009-11-08 01:20:09
93841 bookmarxxx.com 117606 2 823 2010-04-10 10:38:00
93842 parni.nu 93842 0 0 2009-11-08 01:20:09
93843 tiscali.ch 93843 0 0 2009-11-08 01:20:09
93844 yh365.com 93844 0 0 2009-11-08 01:20:09
93845 googlemapsapi.blogspot.com 93845 0 0 2009-11-08 01:20:09
93846 universitarios.cl 93846 0 0 2009-11-08 01:20:09
93847 demedicina.com 93847 0 0 2009-11-08 01:20:09
93848 easysalesformula.com 93848 0 0 2009-11-08 01:20:09
93849 yorksex.com 93849 0 0 2009-11-08 01:20:09
93850 investfunds.ru 93850 0 0 2009-11-08 01:20:09
93851 optivo.de 93851 0 0 2009-11-08 01:20:09
93852 toosie.net 93852 0 0 2009-11-08 01:20:09
93853 thegameforum.com 93853 0 0 2009-11-08 01:20:09
93854 tranniesonline.us 93854 0 0 2009-11-08 01:20:09
93855 filipinamagic.com 93855 0 0 2009-11-08 01:20:09
93856 foxtv.es 111236 5 1,060 2010-03-02 04:44:22
93857 hothat.net 93857 0 0 2009-11-08 01:20:09
93858 smokeybear.com 93858 0 0 2009-11-08 01:20:09
93859 ivpicture.hu 93859 0 0 2009-11-08 01:20:09
93860 kimia.co.za 93860 0 0 2009-11-08 01:20:09
93861 vidics.com 93861 0 0 2009-11-08 01:20:09
93862 epooch.com 93862 0 0 2009-11-08 01:20:09
93863 exploremagento.com 93863 0 0 2009-11-08 01:20:09
93864 drupalcontrib.org 93864 0 0 2009-11-08 01:20:09
93865 huggieshappybaby.com 93865 0 0 2009-11-08 01:20:09
93866 siemens-home.de 93866 0 0 2009-11-08 01:20:09
93867 unt.edu.ar 93867 0 0 2009-11-08 01:20:09
93868 mmfiles.com 106053 4 5,560 2010-02-12 01:04:24
93869 requesttracker.org 93869 0 0 2009-11-08 01:20:09
93870 fresnocitycollege.edu 93870 0 0 2009-11-08 01:20:09
93871 airchina.com 93871 0 0 2009-11-08 01:20:09
93872 kartoo.com 93872 0 0 2009-11-08 01:20:09
93873 cds.ru 449078 4 641 2010-03-02 00:30:47
93874 poplink.com.br 93874 0 0 2009-11-08 01:20:09
93875 eg-search.net 93875 0 0 2009-11-08 01:20:09
93876 hematologylibrary.org 93876 0 0 2009-11-08 01:20:09
93877 memberspeed.com 53545 4 291 2010-03-02 13:04:03
93878 discoverism.com 93878 0 0 2009-11-08 01:20:09
93879 americasbest.com 93879 0 0 2009-11-08 01:20:09
93880 nooti.com 93880 0 0 2009-11-08 01:20:09
93881 mpk.lublin.pl 93881 0 0 2009-11-08 01:20:09
93882 articlewide.com 93882 0 0 2009-11-08 01:20:09
93883 truphone.com 93883 0 0 2009-11-08 01:20:09
93884 4tivo.com 110397 3 10,100 2010-02-02 08:29:20
93885 spiritairlines.com 93885 0 0 2009-11-08 01:20:09
93886 xtc-wiki.de 93886 0 0 2009-11-08 01:20:09
93887 combellga.ru 93887 0 0 2009-11-08 01:20:09
93888 africanmark.co.cc 93888 0 0 2009-11-08 01:20:09
93889 qk3000.com 93889 0 0 2009-11-08 01:20:09
93890 fototv.de 93890 0 0 2009-11-08 01:20:09
93891 tombola.hu/user/sponsor_exit 93891 0 0 2009-11-08 01:20:09
93892 innovyx.net 93892 0 0 2009-11-08 01:20:09
93893 jlpthumbs.com 93893 0 0 2009-11-08 01:20:09
93894 kankin.net 93894 0 0 2009-11-08 01:20:09
93895 smb2b.cn 93895 0 0 2009-11-08 01:20:09
93896 albdel.com 93896 0 0 2009-11-08 01:20:09
93897 vizita.si 93897 0 0 2009-11-08 01:20:09
93898 ts60.com 112055 0 180 2010-02-15 22:36:11
93899 mandodns.com 93899 0 0 2009-11-08 01:20:09
93900 scienceofgettingrich.net 93900 0 0 2009-11-08 01:20:09
93901 urban75.org 93901 0 0 2009-11-08 01:20:09
93902 it-prestige.com 93902 0 0 2009-11-08 01:20:09
93903 mundofox.com.br 93903 0 0 2009-11-08 01:20:09
93904 diariodeibiza.es 93904 0 0 2009-11-08 01:20:09
93905 clubtone.net 93905 0 0 2009-11-08 01:20:09
93906 kfilmu.net 93906 0 0 2009-11-08 01:20:09
93907 rcn.ne.jp 93907 0 0 2009-11-08 01:20:09
93908 cockcompetition.com 93908 0 0 2009-11-08 01:20:09
93909 fitclick.com 93909 0 0 2009-11-08 01:20:09
93910 chu.edu.tw 93910 0 0 2009-11-08 01:20:09
93911 comsearch.jp 93911 0 0 2009-11-08 01:20:09
93912 mediaresponder.com 93912 0 0 2009-11-08 01:20:09
93913 eschoolnews.com 93913 0 0 2009-11-08 01:20:09
93914 daddysfriend.com 93914 0 0 2009-11-08 01:20:09
93915 ad-di.net 93915 0 0 2009-11-08 01:20:09
93916 thedirectorycheap.com 93916 0 0 2009-11-08 01:20:09
93917 buscadordezoofilia.com 93917 0 0 2009-11-08 01:20:09
93918 g-unleashed.com 93918 0 0 2009-11-08 01:20:09
93919 make-a-ton-of-money.com 93919 0 0 2009-11-08 01:20:09
93920 mda.gov.sg 93920 0 0 2009-11-08 01:20:09
93921 pornstarvid.com 93921 0 0 2009-11-08 01:20:09
93922 kinderbux.com 93922 0 0 2009-11-08 01:20:09
93923 mobilbekas.org 93923 0 0 2009-11-08 01:20:09
93924 dialog.com 93924 0 0 2009-11-08 01:20:09
93925 siteexperts.com 93925 0 0 2009-11-08 01:20:09
93926 groups.yahoo.com/group/Hindi_Jokes 93926 0 0 2009-11-08 01:20:09
93927 vtczone.vn 93927 0 0 2009-11-08 01:20:09
93928 ps03.info 93928 0 0 2009-11-08 01:20:09
93929 aplaceformom.com 93929 0 0 2009-11-08 01:20:09
93930 iocbc.com 93930 0 0 2009-11-08 01:20:09
93931 silkroad.com 93931 0 0 2009-11-08 01:20:09
93932 onemeet.net 93932 0 0 2009-11-08 01:20:09
93933 ofm.co.za 94040 5 2,000,000 2010-03-06 22:11:00
93934 dune.co.uk 93934 0 0 2009-11-08 01:20:09
93935 jxjyzy.com 93935 0 0 2009-11-08 01:20:09
93936 hollister.com 93936 0 0 2009-11-08 01:20:09
93937 thecolor.com 93937 0 0 2009-11-08 01:20:09
93938 airjamaica.com 93938 0 0 2009-11-08 01:20:09
93939 fank.ru 93939 0 0 2009-11-08 01:20:09
93940 jqueryajax.com 93940 0 0 2009-11-08 01:20:09
93941 fastfever.com 93941 0 0 2009-11-08 01:20:09
93942 berliner-adressen.de 93942 0 0 2009-11-08 01:20:09
93943 pcsafetytest.com 93943 0 0 2009-11-08 01:20:09
93944 sweetrape.com 93944 0 0 2009-11-08 01:20:09
93945 free-webmaster-tools.com 93945 0 0 2009-11-08 01:20:09
93946 whats-your-sign.com 93946 0 0 2009-11-08 01:20:09
93947 herbs2000.com 93947 0 0 2009-11-08 01:20:09
93948 wp-magazine-themes.com 93948 0 0 2009-11-08 01:20:09
93949 jindian.com.cn 93949 0 0 2009-11-08 01:20:09
93950 house100.cn 93950 0 0 2009-11-08 01:20:09
93951 rapsun4.com 102089 0 602 2010-02-05 06:48:37
93952 webperspectives.ca 93952 0 0 2009-11-08 01:20:09
93953 picred.com 93953 0 0 2009-11-08 01:20:09
93954 hiv-vct.net 93954 0 0 2009-11-08 01:20:09
93955 lrb.co.uk 93955 0 0 2009-11-08 01:20:09
93956 t2tube.com 93956 0 0 2009-11-08 01:20:09
93957 gyantunplugged.com 93957 0 0 2009-11-08 01:20:09
93958 pooldawg.com 109959 5 1,770 2010-03-10 13:00:17
93959 sccu.com 93959 0 0 2009-11-08 01:20:09
93960 gotphaze.com 93960 0 0 2009-11-08 01:20:09
93961 homebizoffer.net 93961 0 0 2009-11-08 01:20:09
93962 ro.gov.br 93962 0 0 2009-11-08 01:20:09
93963 tws3d.com 93963 0 0 2009-11-08 01:20:09
93964 webtvhub.com 93964 0 0 2009-11-08 01:20:09
93965 anhsaoxanh.biz 93965 0 0 2009-11-08 01:20:09
93966 astrolabio.net 80421 5 6,780 2010-03-08 15:44:00
93967 ktnv.com 93967 0 0 2009-11-08 01:20:09
93968 fourpointcl.com 93968 0 0 2009-11-08 01:20:09
93969 asteriskguru.com 93969 0 0 2009-11-08 01:20:09
93970 digital-camera.gr 93970 0 0 2009-11-08 01:20:09
93971 foto-erhardt.de 93971 0 0 2009-11-08 01:20:09
93972 jinpaopao.com 93972 0 0 2009-11-08 01:20:09
93973 kinolib.com 93973 0 0 2009-11-08 01:20:09
93974 fastexercise.com 93974 0 0 2009-11-08 01:20:09
93975 joshspear.com 93975 0 0 2009-11-08 01:20:09
93976 inoherb.com 93976 0 0 2009-11-08 01:20:09
93977 profitdating.ru 93977 0 0 2009-11-08 01:20:09
93978 itsartmag.com 93978 0 0 2009-11-08 01:20:09
93979 brandonaaron.net 93979 0 0 2009-11-08 01:20:09
93980 solarehotels.com 93980 0 0 2009-11-08 01:20:09
93981 e-matching.nl 93981 0 0 2009-11-08 01:20:09
93982 dacom.net 93982 0 0 2009-11-08 01:20:09
93983 savethedate.it 93983 0 0 2009-11-08 01:20:09
93984 rare-escort.com 93984 0 0 2009-11-08 01:20:09
93985 extremehowto.com 93985 0 0 2009-11-08 01:20:09
93986 turnkeyinternet.net 93986 0 0 2009-11-08 01:20:09
93987 210.76.65.188 79124 6 130 2010-04-12 08:00:23
93988 getusersvideo.com 93988 0 0 2009-11-08 01:20:09
93989 lush.com 93989 0 0 2009-11-08 01:20:09
93990 loves.ne.jp 93990 0 0 2009-11-08 01:20:09
93991 thetvaddict.com 93991 0 0 2009-11-08 01:20:09
93992 celebfans.com 93992 0 0 2009-11-08 01:20:09
93993 openclick.com 93993 0 0 2009-11-08 01:20:09
93994 thejapanesepage.com 93994 0 0 2009-11-08 01:20:09
93995 magicfreevideos.com 93995 0 0 2009-11-08 01:20:09
93996 hoteis.com.br 93996 0 0 2009-11-08 01:20:09
93997 adult-links.com 93997 0 0 2009-11-08 01:20:09
93998 yahoopreferred.com 93998 0 0 2009-11-08 01:20:09
93999 guidenet.jp 93999 0 0 2009-11-08 01:20:09
94000 hoover.com 94000 0 0 2009-11-08 01:20:09
94001 fetishsnake.com 94001 0 0 2009-11-08 01:20:09